Observation data for Tahoka on 06/20/2019      Previous  Date  Next       Current Mesonet Observations  Soil Data  Daily Summary Page  Observations in Plain Language
KTAS 200500Z 08007KT 23/18 A2985 RMK A01 T02250182  RH  076%=      5-min Rain = 0
KTAS 200501Z 07008KT 22/18 A2985 RMK A01 T02240181  RH  077%=      5-min Rain = 0
KTAS 200502Z 08008KT 22/18 A2985 RMK A01 T02230182  RH  077%=      5-min Rain = 0
KTAS 200503Z 09007KT 22/18 A2985 RMK A01 T02220181  RH  077%=      5-min Rain = 0
KTAS 200504Z 09008KT 22/18 A2985 RMK A01 T02220181  RH  078%=      5-min Rain = 0
KTAS 200505Z 10007KT 22/18 A2985 RMK A01 T02220181  RH  078%=      5-min Rain = 0
KTAS 200506Z 11008KT 22/18 A2985 RMK A01 T02230181  RH  077%=      5-min Rain = 0
KTAS 200507Z 11007KT 22/18 A2985 RMK A01 T02230182  RH  077%=      5-min Rain = 0
KTAS 200508Z 09008KT 22/18 A2985 RMK A01 T02220182  RH  078%=      5-min Rain = 0
KTAS 200509Z 09010KT 22/18 A2986 RMK A01 T02210182  RH  078%=      5-min Rain = 0
KTAS 200510Z 09010KT 22/18 A2986 RMK A01 T02210182  RH  078%=      5-min Rain = 0
KTAS 200511Z 10009KT 22/18 A2986 RMK A01 T02210182  RH  078%=      5-min Rain = 0
KTAS 200512Z 10009KT 22/18 A2985 RMK A01 T02220183  RH  078%=      5-min Rain = 0
KTAS 200513Z 11008KT 23/18 A2985 RMK A01 T02250184  RH  078%=      5-min Rain = 0
KTAS 200514Z 11009KT 23/18 A2985 RMK A01 T02250184  RH  078%=      5-min Rain = 0
KTAS 200515Z 10009KT 23/19 A2985 RMK A01 T02260186  RH  078%=      5-min Rain = 0
KTAS 200516Z 10010KT 23/19 A2985 RMK A01 T02280187  RH  077%=      5-min Rain = 0
KTAS 200517Z 10009KT 23/19 A2986 RMK A01 T02300187  RH  077%=      5-min Rain = 0
KTAS 200518Z 09007KT 23/19 A2986 RMK A01 T02300188  RH  077%=      5-min Rain = 0
KTAS 200519Z 09007KT 23/19 A2986 RMK A01 T02300188  RH  077%=      5-min Rain = 0
KTAS 200520Z 10008KT 23/19 A2986 RMK A01 T02290188  RH  077%=      5-min Rain = 0
KTAS 200521Z 09008KT 23/19 A2986 RMK A01 T02290188  RH  077%=      5-min Rain = 0
KTAS 200522Z 09007KT 23/19 A2986 RMK A01 T02290188  RH  077%=      5-min Rain = 0
KTAS 200523Z 10007KT 23/19 A2985 RMK A01 T02290188  RH  078%=      5-min Rain = 0
KTAS 200524Z 09007KT 23/19 A2986 RMK A01 T02290189  RH  078%=      5-min Rain = 0
KTAS 200525Z 09006KT 23/19 A2986 RMK A01 T02280189  RH  078%=      5-min Rain = 0
KTAS 200526Z 09007KT 23/19 A2986 RMK A01 T02280189  RH  078%=      5-min Rain = 0
KTAS 200527Z 09007KT 23/19 A2986 RMK A01 T02280189  RH  079%=      5-min Rain = 0
KTAS 200528Z 09007KT 23/19 A2986 RMK A01 T02280189  RH  079%=      5-min Rain = 0
KTAS 200529Z 09007KT 23/19 A2986 RMK A01 T02270189  RH  079%=      5-min Rain = 0
KTAS 200530Z 09006KT 23/19 A2986 RMK A01 T02270189  RH  079%=      5-min Rain = 0
KTAS 200531Z 08006KT 23/19 A2986 RMK A01 T02250189  RH  080%=      5-min Rain = 0
KTAS 200532Z 08007KT 22/19 A2986 RMK A01 T02240189  RH  080%=      5-min Rain = 0
KTAS 200533Z 07007KT 22/19 A2986 RMK A01 T02240189  RH  081%=      5-min Rain = 0
KTAS 200534Z 08007KT 22/19 A2986 RMK A01 T02230190  RH  081%=      5-min Rain = 0
KTAS 200535Z 08007KT 22/19 A2986 RMK A01 T02220190  RH  082%=      5-min Rain = 0
KTAS 200536Z 08007KT 22/19 A2986 RMK A01 T02220190  RH  082%=      5-min Rain = 0
KTAS 200537Z 09007KT 22/19 A2986 RMK A01 T02210190  RH  082%=      5-min Rain = 0
KTAS 200538Z 09006KT 22/19 A2986 RMK A01 T02210190  RH  083%=      5-min Rain = 0
KTAS 200539Z 09006KT 22/19 A2986 RMK A01 T02200190  RH  083%=      5-min Rain = 0
KTAS 200540Z 09005KT 22/19 A2986 RMK A01 T02200190  RH  083%=      5-min Rain = 0
KTAS 200541Z 08006KT 22/19 A2986 RMK A01 T02190190  RH  083%=      5-min Rain = 0
KTAS 200542Z 09005KT 22/19 A2986 RMK A01 T02180190  RH  084%=      5-min Rain = 0
KTAS 200543Z 11006KT 22/19 A2986 RMK A01 T02180190  RH  084%=      5-min Rain = 0
KTAS 200544Z 11006KT 22/19 A2986 RMK A01 T02170190  RH  084%=      5-min Rain = 0
KTAS 200545Z 10006KT 22/19 A2986 RMK A01 T02170190  RH  085%=      5-min Rain = 0
KTAS 200546Z 09006KT 22/19 A2986 RMK A01 T02160189  RH  084%=      5-min Rain = 0
KTAS 200547Z 09006KT 22/19 A2986 RMK A01 T02160189  RH  085%=      5-min Rain = 0
KTAS 200548Z 10006KT 22/19 A2986 RMK A01 T02160189  RH  085%=      5-min Rain = 0
KTAS 200549Z 10007KT 22/19 A2986 RMK A01 T02160190  RH  085%=      5-min Rain = 0
KTAS 200550Z 10006KT 22/19 A2986 RMK A01 T02160190  RH  085%=      5-min Rain = 0
KTAS 200551Z 10006KT 22/19 A2986 RMK A01 T02160190  RH  085%=      5-min Rain = 0
KTAS 200552Z 11006KT 22/19 A2986 RMK A01 T02160190  RH  085%=      5-min Rain = 0
KTAS 200553Z 10007KT 22/19 A2986 RMK A01 T02160191  RH  085%=      5-min Rain = 0
KTAS 200554Z 10007KT 22/19 A2986 RMK A01 T02170191  RH  085%=      5-min Rain = 0
KTAS 200555Z 10008KT 22/19 A2986 RMK A01 T02180192  RH  085%=      5-min Rain = 0
KTAS 200556Z 10009KT 22/19 A2986 RMK A01 T02180192  RH  085%=      5-min Rain = 0
KTAS 200557Z 11008KT 22/19 A2986 RMK A01 T02200192  RH  084%=      5-min Rain = 0
KTAS 200558Z 11008KT 22/19 A2986 RMK A01 T02210192  RH  084%=      5-min Rain = 0
KTAS 200559Z 11007KT 22/19 A2986 RMK A01 T02210192  RH  084%=      5-min Rain = 0
KTAS 200600Z 10008KT 22/19 A2986 RMK A01 T02210192  RH  084%=      5-min Rain = 0
KTAS 200601Z 10009KT 22/19 A2986 RMK A01 T02220193  RH  083%=      5-min Rain = 0
KTAS 200602Z 11007KT 22/19 A2986 RMK A01 T02220192  RH  083%=      5-min Rain = 0
KTAS 200603Z 11006KT 22/19 A2986 RMK A01 T02210192  RH  084%=      5-min Rain = 0
KTAS 200604Z 11006KT 22/19 A2986 RMK A01 T02200192  RH  084%=      5-min Rain = 0
KTAS 200605Z 11006KT 22/19 A2986 RMK A01 T02200192  RH  084%=      5-min Rain = 0
KTAS 200606Z 11006KT 22/19 A2986 RMK A01 T02190191  RH  084%=      5-min Rain = 0
KTAS 200607Z 11006KT 22/19 A2986 RMK A01 T02180191  RH  085%=      5-min Rain = 0
KTAS 200608Z 11006KT 22/19 A2986 RMK A01 T02170191  RH  085%=      5-min Rain = 0
KTAS 200609Z 12006KT 22/19 A2986 RMK A01 T02170191  RH  085%=      5-min Rain = 0
KTAS 200610Z 11005KT 22/19 A2986 RMK A01 T02160191  RH  085%=      5-min Rain = 0
KTAS 200611Z 10005KT 22/19 A2986 RMK A01 T02160190  RH  085%=      5-min Rain = 0
KTAS 200612Z 10004KT 22/19 A2986 RMK A01 T02160190  RH  085%=      5-min Rain = 0
KTAS 200613Z 10004KT 22/19 A2986 RMK A01 T02150190  RH  085%=      5-min Rain = 0
KTAS 200614Z 10005KT 22/19 A2986 RMK A01 T02150190  RH  085%=      5-min Rain = 0
KTAS 200615Z 09006KT 22/19 A2986 RMK A01 T02150189  RH  086%=      5-min Rain = 0
KTAS 200616Z 10005KT 21/19 A2986 RMK A01 T02140189  RH  086%=      5-min Rain = 0
KTAS 200617Z 10006KT 21/19 A2986 RMK A01 T02140189  RH  086%=      5-min Rain = 0
KTAS 200618Z 09006KT 21/19 A2986 RMK A01 T02140189  RH  086%=      5-min Rain = 0
KTAS 200619Z 10004KT 21/19 A2986 RMK A01 T02140189  RH  085%=      5-min Rain = 0
KTAS 200620Z 10005KT 21/19 A2986 RMK A01 T02140188  RH  085%=      5-min Rain = 0
KTAS 200621Z 10005KT 21/19 A2986 RMK A01 T02140188  RH  085%=      5-min Rain = 0
KTAS 200622Z 12007KT 21/19 A2986 RMK A01 T02130187  RH  085%=      5-min Rain = 0
KTAS 200623Z 11006KT 22/19 A2986 RMK A01 T02150187  RH  084%=      5-min Rain = 0
KTAS 200624Z 12007KT 22/19 A2986 RMK A01 T02160187  RH  083%=      5-min Rain = 0
KTAS 200625Z 11007KT 22/19 A2986 RMK A01 T02170186  RH  083%=      5-min Rain = 0
KTAS 200626Z 11007KT 22/19 A2986 RMK A01 T02180186  RH  082%=      5-min Rain = 0
KTAS 200627Z 11007KT 22/19 A2985 RMK A01 T02180185  RH  082%=      5-min Rain = 0
KTAS 200628Z 11005KT 22/19 A2986 RMK A01 T02180185  RH  082%=      5-min Rain = 0
KTAS 200629Z 11006KT 22/19 A2986 RMK A01 T02180185  RH  082%=      5-min Rain = 0
KTAS 200630Z 11007KT 22/19 A2986 RMK A01 T02180185  RH  082%=      5-min Rain = 0
KTAS 200631Z 12008KT 22/18 A2986 RMK A01 T02190184  RH  080%=      5-min Rain = 0
KTAS 200632Z 12009KT 22/18 A2986 RMK A01 T02210183  RH  079%=      5-min Rain = 0
KTAS 200633Z 12008KT 22/18 A2985 RMK A01 T02230183  RH  078%=      5-min Rain = 0
KTAS 200634Z 13009KT 22/18 A2985 RMK A01 T02240183  RH  078%=      5-min Rain = 0
KTAS 200635Z 12009KT 23/18 A2985 RMK A01 T02250182  RH  077%=      5-min Rain = 0
KTAS 200636Z 12010KT 23/18 A2986 RMK A01 T02260182  RH  076%=      5-min Rain = 0
KTAS 200637Z 12010KT 23/18 A2986 RMK A01 T02270182  RH  076%=      5-min Rain = 0
KTAS 200638Z 12009KT 23/18 A2986 RMK A01 T02270182  RH  075%=      5-min Rain = 0
KTAS 200639Z 12011KT 23/18 A2986 RMK A01 T02270181  RH  075%=      5-min Rain = 0
KTAS 200640Z 12010KT 23/18 A2986 RMK A01 T02280181  RH  075%=      5-min Rain = 0
KTAS 200641Z 12009KT 23/18 A2986 RMK A01 T02280181  RH  075%=      5-min Rain = 0
KTAS 200642Z 12010KT 23/18 A2986 RMK A01 T02270181  RH  075%=      5-min Rain = 0
KTAS 200643Z 12009KT 23/18 A2986 RMK A01 T02270180  RH  075%=      5-min Rain = 0
KTAS 200644Z 12009KT 23/18 A2986 RMK A01 T02270180  RH  075%=      5-min Rain = 0
KTAS 200645Z 13008KT 23/18 A2986 RMK A01 T02270180  RH  075%=      5-min Rain = 0
KTAS 200646Z 12010KT 23/18 A2986 RMK A01 T02270181  RH  075%=      5-min Rain = 0
KTAS 200647Z 12010KT 23/18 A2986 RMK A01 T02270181  RH  075%=      5-min Rain = 0
KTAS 200648Z 12011KT 23/18 A2986 RMK A01 T02270181  RH  075%=      5-min Rain = 0
KTAS 200649Z 12011KT 23/18 A2986 RMK A01 T02270181  RH  075%=      5-min Rain = 0
KTAS 200650Z 12010KT 23/18 A2985 RMK A01 T02280180  RH  075%=      5-min Rain = 0
KTAS 200651Z 12009KT 23/18 A2985 RMK A01 T02280180  RH  074%=      5-min Rain = 0
KTAS 200652Z 13009KT 23/18 A2985 RMK A01 T02270180  RH  075%=      5-min Rain = 0
KTAS 200653Z 13010KT 23/18 A2985 RMK A01 T02270180  RH  075%=      5-min Rain = 0
KTAS 200654Z 13009KT 23/18 A2985 RMK A01 T02260180  RH  075%=      5-min Rain = 0
KTAS 200655Z 13008KT 23/18 A2985 RMK A01 T02260180  RH  075%=      5-min Rain = 0
KTAS 200656Z 13008KT 23/18 A2985 RMK A01 T02260180  RH  075%=      5-min Rain = 0
KTAS 200657Z 12008KT 23/18 A2985 RMK A01 T02250179  RH  075%=      5-min Rain = 0
KTAS 200658Z 12008KT 22/18 A2985 RMK A01 T02240179  RH  075%=      5-min Rain = 0
KTAS 200659Z 12009KT 22/18 A2985 RMK A01 T02240179  RH  076%=      5-min Rain = 0
KTAS 200700Z 12008KT 22/18 A2985 RMK A01 T02240179  RH  076%=      5-min Rain = 0
KTAS 200701Z 13008KT 22/18 A2985 RMK A01 T02240179  RH  076%=      5-min Rain = 0
KTAS 200702Z 13008KT 22/18 A2985 RMK A01 T02230180  RH  076%=      5-min Rain = 0
KTAS 200703Z 13008KT 22/18 A2985 RMK A01 T02220180  RH  077%=      5-min Rain = 0
KTAS 200704Z 13008KT 22/18 A2985 RMK A01 T02220179  RH  077%=      5-min Rain = 0
KTAS 200705Z 13008KT 22/18 A2985 RMK A01 T02220179  RH  077%=      5-min Rain = 0
KTAS 200706Z 12008KT 22/18 A2985 RMK A01 T02210179  RH  077%=      5-min Rain = 0
KTAS 200707Z 12008KT 22/18 A2985 RMK A01 T02200180  RH  078%=      5-min Rain = 0
KTAS 200708Z 12008KT 22/18 A2985 RMK A01 T02190179  RH  078%=      5-min Rain = 0
KTAS 200709Z 12008KT 22/18 A2985 RMK A01 T02190179  RH  078%=      5-min Rain = 0
KTAS 200710Z 12008KT 22/18 A2985 RMK A01 T02180179  RH  079%=      5-min Rain = 0
KTAS 200711Z 12008KT 22/18 A2985 RMK A01 T02170179  RH  079%=      5-min Rain = 0
KTAS 200712Z 12007KT 22/18 A2985 RMK A01 T02160179  RH  079%=      5-min Rain = 0
KTAS 200713Z 12008KT 22/18 A2985 RMK A01 T02160179  RH  079%=      5-min Rain = 0
KTAS 200714Z 12008KT 22/18 A2985 RMK A01 T02160179  RH  080%=      5-min Rain = 0
KTAS 200715Z 13008KT 22/18 A2985 RMK A01 T02150179  RH  080%=      5-min Rain = 0
KTAS 200716Z 12008KT 22/18 A2985 RMK A01 T02150179  RH  080%=      5-min Rain = 0
KTAS 200717Z 12008KT 21/18 A2984 RMK A01 T02140179  RH  080%=      5-min Rain = 0
KTAS 200718Z 12008KT 21/18 A2984 RMK A01 T02140179  RH  080%=      5-min Rain = 0
KTAS 200719Z 12009KT 21/18 A2984 RMK A01 T02140178  RH  080%=      5-min Rain = 0
KTAS 200720Z 12009KT 21/18 A2984 RMK A01 T02140178  RH  080%=      5-min Rain = 0
KTAS 200721Z 12008KT 21/18 A2984 RMK A01 T02140178  RH  080%=      5-min Rain = 0
KTAS 200722Z 12008KT 21/18 A2984 RMK A01 T02140178  RH  080%=      5-min Rain = 0
KTAS 200723Z 12007KT 21/18 A2984 RMK A01 T02140178  RH  080%=      5-min Rain = 0
KTAS 200724Z 12007KT 21/18 A2984 RMK A01 T02140178  RH  080%=      5-min Rain = 0
KTAS 200725Z 12006KT 21/18 A2984 RMK A01 T02130177  RH  080%=      5-min Rain = 0
KTAS 200726Z 11006KT 21/18 A2984 RMK A01 T02120177  RH  080%=      5-min Rain = 0
KTAS 200727Z 12006KT 21/18 A2984 RMK A01 T02110176  RH  081%=      5-min Rain = 0
KTAS 200728Z 12006KT 21/18 A2984 RMK A01 T02090176  RH  081%=      5-min Rain = 0
KTAS 200729Z 12007KT 21/18 A2984 RMK A01 T02080176  RH  082%=      5-min Rain = 0
KTAS 200730Z 12007KT 21/18 A2984 RMK A01 T02070175  RH  082%=      5-min Rain = 0
KTAS 200731Z 12007KT 21/18 A2984 RMK A01 T02070175  RH  082%=      5-min Rain = 0
KTAS 200732Z 12007KT 21/18 A2984 RMK A01 T02070175  RH  082%=      5-min Rain = 0
KTAS 200733Z 12008KT 21/17 A2984 RMK A01 T02070174  RH  081%=      5-min Rain = 0
KTAS 200734Z 12008KT 21/17 A2984 RMK A01 T02070174  RH  081%=      5-min Rain = 0
KTAS 200735Z 12008KT 21/17 A2984 RMK A01 T02070174  RH  081%=      5-min Rain = 0
KTAS 200736Z 13008KT 21/17 A2984 RMK A01 T02070173  RH  081%=      5-min Rain = 0
KTAS 200737Z 12008KT 21/17 A2984 RMK A01 T02070173  RH  081%=      5-min Rain = 0
KTAS 200738Z 13008KT 21/17 A2984 RMK A01 T02070173  RH  081%=      5-min Rain = 0
KTAS 200739Z 12008KT 21/17 A2984 RMK A01 T02070173  RH  081%=      5-min Rain = 0
KTAS 200740Z 13009KT 21/17 A2983 RMK A01 T02070173  RH  081%=      5-min Rain = 0
KTAS 200741Z 13008KT 21/17 A2983 RMK A01 T02070173  RH  081%=      5-min Rain = 0
KTAS 200742Z 13009KT 21/17 A2983 RMK A01 T02070173  RH  081%=      5-min Rain = 0
KTAS 200743Z 12009KT 21/17 A2983 RMK A01 T02070173  RH  081%=      5-min Rain = 0
KTAS 200744Z 13010KT 21/17 A2983 RMK A01 T02080173  RH  080%=      5-min Rain = 0
KTAS 200745Z 12009KT 21/17 A2983 RMK A01 T02090172  RH  079%=      5-min Rain = 0
KTAS 200746Z 12009KT 21/17 A2983 RMK A01 T02090172  RH  079%=      5-min Rain = 0
KTAS 200747Z 12009KT 21/17 A2983 RMK A01 T02090172  RH  079%=      5-min Rain = 0
KTAS 200748Z 12009KT 21/17 A2983 RMK A01 T02090172  RH  079%=      5-min Rain = 0
KTAS 200749Z 13008KT 21/17 A2983 RMK A01 T02090172  RH  079%=      5-min Rain = 0
KTAS 200750Z 13008KT 21/17 A2983 RMK A01 T02090172  RH  079%=      5-min Rain = 0
KTAS 200751Z 12008KT 21/17 A2983 RMK A01 T02090172  RH  080%=      5-min Rain = 0
KTAS 200752Z 13007KT 21/17 A2983 RMK A01 T02080173  RH  080%=      5-min Rain = 0
KTAS 200753Z 12007KT 21/17 A2983 RMK A01 T02080173  RH  080%=      5-min Rain = 0
KTAS 200754Z 12008KT 21/17 A2983 RMK A01 T02070173  RH  081%=      5-min Rain = 0
KTAS 200755Z 12007KT 21/17 A2983 RMK A01 T02070172  RH  080%=      5-min Rain = 0
KTAS 200756Z 12007KT 21/17 A2983 RMK A01 T02080172  RH  080%=      5-min Rain = 0
KTAS 200757Z 12008KT 21/17 A2983 RMK A01 T02080173  RH  080%=      5-min Rain = 0
KTAS 200758Z 12008KT 21/17 A2983 RMK A01 T02080172  RH  080%=      5-min Rain = 0
KTAS 200759Z 12008KT 21/17 A2983 RMK A01 T02080172  RH  079%=      5-min Rain = 0
KTAS 200800Z 12007KT 21/17 A2983 RMK A01 T02080172  RH  079%=      5-min Rain = 0
KTAS 200801Z 12008KT 21/17 A2983 RMK A01 T02080172  RH  080%=      5-min Rain = 0
KTAS 200802Z 13007KT 21/17 A2983 RMK A01 T02080172  RH  080%=      5-min Rain = 0
KTAS 200803Z 13008KT 21/17 A2983 RMK A01 T02080172  RH  080%=      5-min Rain = 0
KTAS 200804Z 12008KT 21/17 A2983 RMK A01 T02070172  RH  080%=      5-min Rain = 0
KTAS 200805Z 12008KT 21/17 A2983 RMK A01 T02060172  RH  081%=      5-min Rain = 0
KTAS 200806Z 12007KT 21/17 A2983 RMK A01 T02060172  RH  081%=      5-min Rain = 0
KTAS 200807Z 12007KT 21/17 A2983 RMK A01 T02060172  RH  081%=      5-min Rain = 0
KTAS 200808Z 12007KT 21/17 A2983 RMK A01 T02050171  RH  081%=      5-min Rain = 0
KTAS 200809Z 12007KT 20/17 A2983 RMK A01 T02040171  RH  081%=      5-min Rain = 0
KTAS 200810Z 12007KT 20/17 A2983 RMK A01 T02040171  RH  082%=      5-min Rain = 0
KTAS 200811Z 12007KT 20/17 A2983 RMK A01 T02030172  RH  082%=      5-min Rain = 0
KTAS 200812Z 12006KT 20/17 A2983 RMK A01 T02030172  RH  082%=      5-min Rain = 0
KTAS 200813Z 12007KT 20/17 A2983 RMK A01 T02030172  RH  082%=      5-min Rain = 0
KTAS 200814Z 12007KT 20/17 A2983 RMK A01 T02030171  RH  082%=      5-min Rain = 0
KTAS 200815Z 12007KT 20/17 A2983 RMK A01 T02030171  RH  082%=      5-min Rain = 0
KTAS 200816Z 12006KT 20/17 A2983 RMK A01 T02030171  RH  082%=      5-min Rain = 0
KTAS 200817Z 12006KT 20/17 A2983 RMK A01 T02030171  RH  082%=      5-min Rain = 0
KTAS 200818Z 12007KT 20/17 A2982 RMK A01 T02020171  RH  082%=      5-min Rain = 0
KTAS 200819Z 11007KT 20/17 A2982 RMK A01 T02020171  RH  083%=      5-min Rain = 0
KTAS 200820Z 12007KT 20/17 A2982 RMK A01 T02010171  RH  083%=      5-min Rain = 0
KTAS 200821Z 12007KT 20/17 A2982 RMK A01 T02010171  RH  083%=      5-min Rain = 0
KTAS 200822Z 12006KT 20/17 A2982 RMK A01 T02010171  RH  083%=      5-min Rain = 0
KTAS 200823Z 12006KT 20/17 A2982 RMK A01 T02010170  RH  082%=      5-min Rain = 0
KTAS 200824Z 12006KT 20/17 A2982 RMK A01 T02010170  RH  082%=      5-min Rain = 0
KTAS 200825Z 13006KT 20/17 A2982 RMK A01 T02010170  RH  082%=      5-min Rain = 0
KTAS 200826Z 13006KT 20/17 A2982 RMK A01 T02010170  RH  082%=      5-min Rain = 0
KTAS 200827Z 12007KT 20/17 A2982 RMK A01 T02010169  RH  082%=      5-min Rain = 0
KTAS 200828Z 13007KT 20/17 A2982 RMK A01 T02010169  RH  082%=      5-min Rain = 0
KTAS 200829Z 13007KT 20/17 A2982 RMK A01 T02010169  RH  081%=      5-min Rain = 0
KTAS 200830Z 13008KT 20/17 A2982 RMK A01 T02020168  RH  081%=      5-min Rain = 0
KTAS 200831Z 12007KT 20/17 A2982 RMK A01 T02030168  RH  080%=      5-min Rain = 0
KTAS 200832Z 13009KT 20/17 A2982 RMK A01 T02040168  RH  080%=      5-min Rain = 0
KTAS 200833Z 13009KT 21/17 A2982 RMK A01 T02050168  RH  079%=      5-min Rain = 0
KTAS 200834Z 13009KT 21/17 A2982 RMK A01 T02060168  RH  079%=      5-min Rain = 0
KTAS 200835Z 12009KT 21/17 A2982 RMK A01 T02060168  RH  078%=      5-min Rain = 0
KTAS 200836Z 12009KT 21/17 A2982 RMK A01 T02060168  RH  078%=      5-min Rain = 0
KTAS 200837Z 12008KT 21/17 A2982 RMK A01 T02070167  RH  078%=      5-min Rain = 0
KTAS 200838Z 13008KT 21/17 A2982 RMK A01 T02070167  RH  078%=      5-min Rain = 0
KTAS 200839Z 12009KT 21/17 A2982 RMK A01 T02060166  RH  078%=      5-min Rain = 0
KTAS 200840Z 12008KT 21/17 A2982 RMK A01 T02060166  RH  078%=      5-min Rain = 0
KTAS 200841Z 12009KT 21/17 A2982 RMK A01 T02060167  RH  078%=      5-min Rain = 0
KTAS 200842Z 12009KT 21/17 A2982 RMK A01 T02050168  RH  079%=      5-min Rain = 0
KTAS 200843Z 12008KT 20/17 A2982 RMK A01 T02040168  RH  080%=      5-min Rain = 0
KTAS 200844Z 12008KT 20/17 A2982 RMK A01 T02030169  RH  081%=      5-min Rain = 0
KTAS 200845Z 12009KT 20/17 A2982 RMK A01 T02030168  RH  081%=      5-min Rain = 0
KTAS 200846Z 12009KT 20/17 A2982 RMK A01 T02030168  RH  081%=      5-min Rain = 0
KTAS 200847Z 12008KT 20/17 A2982 RMK A01 T02030168  RH  081%=      5-min Rain = 0
KTAS 200848Z 12007KT 20/17 A2982 RMK A01 T02020168  RH  081%=      5-min Rain = 0
KTAS 200849Z 12008KT 20/17 A2982 RMK A01 T02020168  RH  081%=      5-min Rain = 0
KTAS 200850Z 11007KT 20/17 A2982 RMK A01 T02010168  RH  081%=      5-min Rain = 0
KTAS 200851Z 12007KT 20/17 A2982 RMK A01 T02010168  RH  081%=      5-min Rain = 0
KTAS 200852Z 12006KT 20/17 A2982 RMK A01 T02010168  RH  081%=      5-min Rain = 0
KTAS 200853Z 12007KT 20/17 A2982 RMK A01 T02010168  RH  082%=      5-min Rain = 0
KTAS 200854Z 12007KT 20/17 A2982 RMK A01 T02010168  RH  081%=      5-min Rain = 0
KTAS 200855Z 12007KT 20/17 A2982 RMK A01 T02010168  RH  081%=      5-min Rain = 0
KTAS 200856Z 12007KT 20/17 A2982 RMK A01 T02010168  RH  081%=      5-min Rain = 0
KTAS 200857Z 12007KT 20/17 A2982 RMK A01 T02010168  RH  081%=      5-min Rain = 0
KTAS 200858Z 13007KT 20/17 A2982 RMK A01 T02000167  RH  081%=      5-min Rain = 0
KTAS 200859Z 13008KT 20/17 A2982 RMK A01 T02000167  RH  082%=      5-min Rain = 0
KTAS 200900Z 13008KT 20/17 A2982 RMK A01 T01990167  RH  082%=      5-min Rain = 0
KTAS 200901Z 13008KT 20/17 A2982 RMK A01 T01990167  RH  081%=      5-min Rain = 0
KTAS 200902Z 13008KT 20/17 A2982 RMK A01 T02000167  RH  081%=      5-min Rain = 0
KTAS 200903Z 13008KT 20/17 A2982 RMK A01 T02000167  RH  081%=      5-min Rain = 0
KTAS 200904Z 13007KT 20/17 A2982 RMK A01 T02010167  RH  081%=      5-min Rain = 0
KTAS 200905Z 13008KT 20/17 A2982 RMK A01 T02010167  RH  081%=      5-min Rain = 0
KTAS 200906Z 12007KT 20/17 A2982 RMK A01 T02010167  RH  081%=      5-min Rain = 0
KTAS 200907Z 13007KT 20/17 A2982 RMK A01 T02010167  RH  081%=      5-min Rain = 0
KTAS 200908Z 13007KT 20/17 A2982 RMK A01 T02010166  RH  080%=      5-min Rain = 0
KTAS 200909Z 13007KT 20/17 A2982 RMK A01 T02010166  RH  080%=      5-min Rain = 0
KTAS 200910Z 13007KT 20/17 A2982 RMK A01 T02010166  RH  080%=      5-min Rain = 0
KTAS 200911Z 13007KT 20/17 A2982 RMK A01 T02010166  RH  080%=      5-min Rain = 0
KTAS 200912Z 13008KT 20/17 A2982 RMK A01 T02010166  RH  080%=      5-min Rain = 0
KTAS 200913Z 13008KT 20/17 A2982 RMK A01 T02010165  RH  080%=      5-min Rain = 0
KTAS 200914Z 13007KT 20/17 A2982 RMK A01 T02020165  RH  079%=      5-min Rain = 0
KTAS 200915Z 13007KT 20/17 A2982 RMK A01 T02020165  RH  079%=      5-min Rain = 0
KTAS 200916Z 13007KT 20/17 A2981 RMK A01 T02020165  RH  079%=      5-min Rain = 0
KTAS 200917Z 13007KT 20/17 A2981 RMK A01 T02010165  RH  080%=      5-min Rain = 0
KTAS 200918Z 13007KT 20/17 A2981 RMK A01 T02010165  RH  080%=      5-min Rain = 0
KTAS 200919Z 13007KT 20/16 A2981 RMK A01 T02000164  RH  080%=      5-min Rain = 0
KTAS 200920Z 13007KT 20/16 A2981 RMK A01 T02000164  RH  080%=      5-min Rain = 0
KTAS 200921Z 13007KT 20/16 A2981 RMK A01 T02000164  RH  080%=      5-min Rain = 0
KTAS 200922Z 13007KT 20/16 A2981 RMK A01 T02000164  RH  080%=      5-min Rain = 0
KTAS 200923Z 13007KT 20/16 A2981 RMK A01 T02000164  RH  080%=      5-min Rain = 0
KTAS 200924Z 13008KT 20/16 A2981 RMK A01 T02010164  RH  079%=      5-min Rain = 0
KTAS 200925Z 14007KT 20/16 A2981 RMK A01 T02010164  RH  079%=      5-min Rain = 0
KTAS 200926Z 13007KT 20/16 A2981 RMK A01 T02000164  RH  079%=      5-min Rain = 0
KTAS 200927Z 13007KT 20/16 A2981 RMK A01 T02000164  RH  080%=      5-min Rain = 0
KTAS 200928Z 13007KT 20/16 A2981 RMK A01 T01990164  RH  080%=      5-min Rain = 0
KTAS 200929Z 14007KT 20/16 A2981 RMK A01 T01980163  RH  080%=      5-min Rain = 0
KTAS 200930Z 13007KT 20/16 A2981 RMK A01 T01980163  RH  080%=      5-min Rain = 0
KTAS 200931Z 13007KT 20/16 A2981 RMK A01 T01980163  RH  080%=      5-min Rain = 0
KTAS 200932Z 13007KT 20/16 A2981 RMK A01 T01970163  RH  081%=      5-min Rain = 0
KTAS 200933Z 14006KT 20/16 A2981 RMK A01 T01970163  RH  081%=      5-min Rain = 0
KTAS 200934Z 14006KT 20/16 A2981 RMK A01 T01970163  RH  081%=      5-min Rain = 0
KTAS 200935Z 14006KT 20/16 A2981 RMK A01 T01970163  RH  081%=      5-min Rain = 0
KTAS 200936Z 13006KT 20/16 A2981 RMK A01 T01960163  RH  081%=      5-min Rain = 0
KTAS 200937Z 13006KT 20/16 A2981 RMK A01 T01950163  RH  082%=      5-min Rain = 0
KTAS 200938Z 13006KT 20/16 A2981 RMK A01 T01950163  RH  082%=      5-min Rain = 0
KTAS 200939Z 13006KT 19/16 A2981 RMK A01 T01940162  RH  082%=      5-min Rain = 0
KTAS 200940Z 12006KT 19/16 A2981 RMK A01 T01930162  RH  082%=      5-min Rain = 0
KTAS 200941Z 12006KT 19/16 A2981 RMK A01 T01920162  RH  083%=      5-min Rain = 0
KTAS 200942Z 12006KT 19/16 A2981 RMK A01 T01910162  RH  083%=      5-min Rain = 0
KTAS 200943Z 13006KT 19/16 A2981 RMK A01 T01910162  RH  083%=      5-min Rain = 0
KTAS 200944Z 12006KT 19/16 A2981 RMK A01 T01900162  RH  083%=      5-min Rain = 0
KTAS 200945Z 13007KT 19/16 A2981 RMK A01 T01900162  RH  084%=      5-min Rain = 0
KTAS 200946Z 13006KT 19/16 A2981 RMK A01 T01900162  RH  084%=      5-min Rain = 0
KTAS 200947Z 13006KT 19/16 A2982 RMK A01 T01900162  RH  084%=      5-min Rain = 0
KTAS 200948Z 13006KT 19/16 A2982 RMK A01 T01900162  RH  084%=      5-min Rain = 0
KTAS 200949Z 13006KT 19/16 A2981 RMK A01 T01890162  RH  084%=      5-min Rain = 0
KTAS 200950Z 13006KT 19/16 A2982 RMK A01 T01890162  RH  084%=      5-min Rain = 0
KTAS 200951Z 13006KT 19/16 A2982 RMK A01 T01890162  RH  084%=      5-min Rain = 0
KTAS 200952Z 13006KT 19/16 A2982 RMK A01 T01890162  RH  084%=      5-min Rain = 0
KTAS 200953Z 14005KT 19/16 A2982 RMK A01 T01890162  RH  084%=      5-min Rain = 0
KTAS 200954Z 14005KT 19/16 A2982 RMK A01 T01890162  RH  084%=      5-min Rain = 0
KTAS 200955Z 14005KT 19/16 A2982 RMK A01 T01890162  RH  085%=      5-min Rain = 0
KTAS 200956Z 13005KT 19/16 A2982 RMK A01 T01890162  RH  084%=      5-min Rain = 0
KTAS 200957Z 13005KT 19/16 A2982 RMK A01 T01890162  RH  084%=      5-min Rain = 0
KTAS 200958Z 13005KT 19/16 A2982 RMK A01 T01890162  RH  084%=      5-min Rain = 0
KTAS 200959Z 13005KT 19/16 A2982 RMK A01 T01890162  RH  084%=      5-min Rain = 0
KTAS 201000Z 13005KT 19/16 A2982 RMK A01 T01890162  RH  084%=      5-min Rain = 0
KTAS 201001Z 13005KT 19/16 A2982 RMK A01 T01880162  RH  085%=      5-min Rain = 0
KTAS 201002Z 13005KT 19/16 A2982 RMK A01 T01880162  RH  085%=      5-min Rain = 0
KTAS 201003Z 13005KT 19/16 A2982 RMK A01 T01870161  RH  085%=      5-min Rain = 0
KTAS 201004Z 13005KT 19/16 A2982 RMK A01 T01870161  RH  085%=      5-min Rain = 0
KTAS 201005Z 13005KT 19/16 A2982 RMK A01 T01870161  RH  085%=      5-min Rain = 0
KTAS 201006Z 14005KT 19/16 A2982 RMK A01 T01860161  RH  085%=      5-min Rain = 0
KTAS 201007Z 14005KT 19/16 A2982 RMK A01 T01860161  RH  085%=      5-min Rain = 0
KTAS 201008Z 14004KT 19/16 A2981 RMK A01 T01850161  RH  086%=      5-min Rain = 0
KTAS 201009Z 14004KT 19/16 A2981 RMK A01 T01850161  RH  086%=      5-min Rain = 0
KTAS 201010Z 14004KT 19/16 A2981 RMK A01 T01860161  RH  086%=      5-min Rain = 0
KTAS 201011Z 14004KT 19/16 A2981 RMK A01 T01850161  RH  086%=      5-min Rain = 0
KTAS 201012Z 14003KT 19/16 A2981 RMK A01 T01850160  RH  086%=      5-min Rain = 0
KTAS 201013Z 14004KT 19/16 A2981 RMK A01 T01850161  RH  086%=      5-min Rain = 0
KTAS 201014Z 13004KT 18/16 A2981 RMK A01 T01840160  RH  086%=      5-min Rain = 0
KTAS 201015Z 13003KT 18/16 A2981 RMK A01 T01830160  RH  086%=      5-min Rain = 0
KTAS 201016Z 13003KT 18/16 A2982 RMK A01 T01840161  RH  086%=      5-min Rain = 0
KTAS 201017Z 12003KT 18/16 A2982 RMK A01 T01830159  RH  086%=      5-min Rain = 0
KTAS 201018Z 11002KT 18/16 A2982 RMK A01 T01820159  RH  086%=      5-min Rain = 0
KTAS 201019Z 10002KT 18/16 A2982 RMK A01 T01810158  RH  087%=      5-min Rain = 0
KTAS 201020Z 10001KT 18/16 A2982 RMK A01 T01800157  RH  087%=      5-min Rain = 0
KTAS 201021Z 10001KT 18/16 A2982 RMK A01 T01780156  RH  086%=      5-min Rain = 0
KTAS 201022Z 10001KT 18/16 A2982 RMK A01 T01780158  RH  088%=      5-min Rain = 0
KTAS 201023Z 11001KT 18/16 A2982 RMK A01 T01780158  RH  088%=      5-min Rain = 0
KTAS 201024Z 11001KT 18/16 A2982 RMK A01 T01780159  RH  088%=      5-min Rain = 0
KTAS 201025Z 11001KT 18/16 A2982 RMK A01 T01780159  RH  088%=      5-min Rain = 0
KTAS 201026Z 12002KT 18/16 A2982 RMK A01 T01780159  RH  088%=      5-min Rain = 0
KTAS 201027Z 12002KT 18/16 A2982 RMK A01 T01780158  RH  088%=      5-min Rain = 0
KTAS 201028Z 12002KT 18/16 A2982 RMK A01 T01770158  RH  088%=      5-min Rain = 0
KTAS 201029Z 12002KT 18/16 A2982 RMK A01 T01770159  RH  089%=      5-min Rain = 0
KTAS 201030Z 12003KT 18/16 A2982 RMK A01 T01780160  RH  089%=      5-min Rain = 0
KTAS 201031Z 12003KT 18/16 A2982 RMK A01 T01770160  RH  089%=      5-min Rain = 0
KTAS 201032Z 12003KT 18/16 A2982 RMK A01 T01770160  RH  089%=      5-min Rain = 0
KTAS 201033Z 13004KT 18/16 A2982 RMK A01 T01770160  RH  089%=      5-min Rain = 0
KTAS 201034Z 13004KT 18/16 A2982 RMK A01 T01770159  RH  089%=      5-min Rain = 0
KTAS 201035Z 13003KT 18/16 A2982 RMK A01 T01760158  RH  089%=      5-min Rain = 0
KTAS 201036Z 14004KT 18/16 A2982 RMK A01 T01760157  RH  089%=      5-min Rain = 0
KTAS 201037Z 14004KT 18/16 A2982 RMK A01 T01750156  RH  089%=      5-min Rain = 0
KTAS 201038Z 14003KT 18/16 A2982 RMK A01 T01750156  RH  089%=      5-min Rain = 0
KTAS 201039Z 15003KT 17/16 A2982 RMK A01 T01740156  RH  089%=      5-min Rain = 0
KTAS 201040Z 14003KT 17/16 A2982 RMK A01 T01740156  RH  089%=      5-min Rain = 0
KTAS 201041Z 14003KT 17/16 A2982 RMK A01 T01740157  RH  090%=      5-min Rain = 0
KTAS 201042Z 15004KT 18/16 A2981 RMK A01 T01750158  RH  090%=      5-min Rain = 0
KTAS 201043Z 15003KT 18/16 A2981 RMK A01 T01760158  RH  089%=      5-min Rain = 0
KTAS 201044Z 15004KT 18/16 A2981 RMK A01 T01760159  RH  089%=      5-min Rain = 0
KTAS 201045Z 15003KT 18/16 A2981 RMK A01 T01760158  RH  089%=      5-min Rain = 0
KTAS 201046Z 15003KT 18/16 A2981 RMK A01 T01760157  RH  089%=      5-min Rain = 0
KTAS 201047Z 14003KT 18/16 A2981 RMK A01 T01760157  RH  089%=      5-min Rain = 0
KTAS 201048Z 14002KT 18/16 A2981 RMK A01 T01750155  RH  088%=      5-min Rain = 0
KTAS 201049Z 14002KT 17/16 A2981 RMK A01 T01740155  RH  089%=      5-min Rain = 0
KTAS 201050Z 15002KT 17/16 A2981 RMK A01 T01740156  RH  089%=      5-min Rain = 0
KTAS 201051Z 15001KT 17/16 A2981 RMK A01 T01740156  RH  089%=      5-min Rain = 0
KTAS 201052Z 15001KT 17/15 A2981 RMK A01 T01730154  RH  089%=      5-min Rain = 0
KTAS 201053Z 15001KT 17/15 A2981 RMK A01 T01710152  RH  088%=      5-min Rain = 0
KTAS 201054Z 14001KT 17/15 A2981 RMK A01 T01700150  RH  088%=      5-min Rain = 0
KTAS 201055Z 14001KT 17/15 A2981 RMK A01 T01700150  RH  088%=      5-min Rain = 0
KTAS 201056Z 13001KT 17/15 A2981 RMK A01 T01690149  RH  088%=      5-min Rain = 0
KTAS 201057Z 14002KT 17/15 A2981 RMK A01 T01670147  RH  088%=      5-min Rain = 0
KTAS 201058Z 14003KT 17/15 A2981 RMK A01 T01660147  RH  088%=      5-min Rain = 0
KTAS 201059Z 14003KT 17/15 A2981 RMK A01 T01660148  RH  089%=      5-min Rain = 0
KTAS 201100Z 14004KT 17/15 A2981 RMK A01 T01660149  RH  090%=      5-min Rain = 0
KTAS 201101Z 14003KT 17/15 A2981 RMK A01 T01660148  RH  090%=      5-min Rain = 0
KTAS 201102Z 14003KT 17/15 A2981 RMK A01 T01650148  RH  090%=      5-min Rain = 0
KTAS 201103Z 14002KT 17/15 A2981 RMK A01 T01650150  RH  090%=      5-min Rain = 0
KTAS 201104Z 14003KT 17/15 A2981 RMK A01 T01660151  RH  091%=      5-min Rain = 0
KTAS 201105Z 14002KT 17/15 A2981 RMK A01 T01660152  RH  091%=      5-min Rain = 0
KTAS 201106Z 14002KT 17/15 A2981 RMK A01 T01650151  RH  091%=      5-min Rain = 0
KTAS 201107Z 14003KT 17/15 A2981 RMK A01 T01650151  RH  091%=      5-min Rain = 0
KTAS 201108Z 15003KT 16/15 A2981 RMK A01 T01640150  RH  091%=      5-min Rain = 0
KTAS 201109Z 15003KT 16/15 A2981 RMK A01 T01630149  RH  091%=      5-min Rain = 0
KTAS 201110Z 15003KT 16/15 A2981 RMK A01 T01630149  RH  091%=      5-min Rain = 0
KTAS 201111Z 15003KT 16/15 A2981 RMK A01 T01630149  RH  091%=      5-min Rain = 0
KTAS 201112Z 15002KT 16/15 A2982 RMK A01 T01640150  RH  092%=      5-min Rain = 0
KTAS 201113Z 15002KT 16/15 A2982 RMK A01 T01630149  RH  091%=      5-min Rain = 0
KTAS 201114Z 15002KT 16/15 A2982 RMK A01 T01620148  RH  091%=      5-min Rain = 0
KTAS 201115Z 17002KT 16/15 A2982 RMK A01 T01640152  RH  092%=      5-min Rain = 0
KTAS 201116Z 18002KT 17/16 A2982 RMK A01 T01670155  RH  093%=      5-min Rain = 0
KTAS 201117Z 20002KT 17/16 A2982 RMK A01 T01680156  RH  093%=      5-min Rain = 0
KTAS 201118Z 20002KT 17/16 A2982 RMK A01 T01680156  RH  093%=      5-min Rain = 0
KTAS 201119Z 19003KT 17/15 A2982 RMK A01 T01670154  RH  092%=      5-min Rain = 0
KTAS 201120Z 19003KT 17/15 A2982 RMK A01 T01650151  RH  092%=      5-min Rain = 0
KTAS 201121Z 19003KT 16/15 A2982 RMK A01 T01640149  RH  091%=      5-min Rain = 0
KTAS 201122Z 19004KT 16/15 A2982 RMK A01 T01630148  RH  091%=      5-min Rain = 0
KTAS 201123Z 19004KT 16/15 A2982 RMK A01 T01620147  RH  091%=      5-min Rain = 0
KTAS 201124Z 19003KT 16/15 A2982 RMK A01 T01610146  RH  091%=      5-min Rain = 0
KTAS 201125Z 18004KT 16/15 A2982 RMK A01 T01610145  RH  091%=      5-min Rain = 0
KTAS 201126Z 18004KT 16/15 A2982 RMK A01 T01600145  RH  091%=      5-min Rain = 0
KTAS 201127Z 18004KT 16/15 A2982 RMK A01 T01610148  RH  092%=      5-min Rain = 0
KTAS 201128Z 18004KT 16/15 A2982 RMK A01 T01620150  RH  093%=      5-min Rain = 0
KTAS 201129Z 18004KT 16/15 A2982 RMK A01 T01610149  RH  092%=      5-min Rain = 0
KTAS 201130Z 18005KT 16/15 A2982 RMK A01 T01610149  RH  093%=      5-min Rain = 0
KTAS 201131Z 18005KT 16/15 A2982 RMK A01 T01620151  RH  093%=      5-min Rain = 0
KTAS 201132Z 18005KT 16/15 A2982 RMK A01 T01640154  RH  094%=      5-min Rain = 0
KTAS 201133Z 18005KT 17/16 A2982 RMK A01 T01660155  RH  094%=      5-min Rain = 0
KTAS 201134Z 18004KT 17/16 A2982 RMK A01 T01660155  RH  093%=      5-min Rain = 0
KTAS 201135Z 18004KT 17/16 A2982 RMK A01 T01670155  RH  093%=      5-min Rain = 0
KTAS 201136Z 18004KT 17/16 A2982 RMK A01 T01680156  RH  093%=      5-min Rain = 0
KTAS 201137Z 18004KT 17/16 A2982 RMK A01 T01680155  RH  092%=      5-min Rain = 0
KTAS 201138Z 18004KT 17/16 A2982 RMK A01 T01680155  RH  092%=      5-min Rain = 0
KTAS 201139Z 18003KT 17/16 A2982 RMK A01 T01680155  RH  092%=      5-min Rain = 0
KTAS 201140Z 18003KT 17/16 A2982 RMK A01 T01680155  RH  092%=      5-min Rain = 0
KTAS 201141Z 18004KT 17/15 A2982 RMK A01 T01670154  RH  092%=      5-min Rain = 0
KTAS 201142Z 18004KT 17/16 A2982 RMK A01 T01670155  RH  092%=      5-min Rain = 0
KTAS 201143Z 18004KT 17/16 A2982 RMK A01 T01680156  RH  093%=      5-min Rain = 0
KTAS 201144Z 17004KT 17/16 A2982 RMK A01 T01690158  RH  093%=      5-min Rain = 0
KTAS 201145Z 17004KT 17/16 A2982 RMK A01 T01690156  RH  093%=      5-min Rain = 0
KTAS 201146Z 17004KT 17/16 A2983 RMK A01 T01680156  RH  092%=      5-min Rain = 0
KTAS 201147Z 17004KT 17/16 A2983 RMK A01 T01680155  RH  092%=      5-min Rain = 0
KTAS 201148Z 17004KT 17/15 A2983 RMK A01 T01670154  RH  092%=      5-min Rain = 0
KTAS 201149Z 17003KT 17/15 A2983 RMK A01 T01670153  RH  092%=      5-min Rain = 0
KTAS 201150Z 17003KT 17/15 A2983 RMK A01 T01670153  RH  092%=      5-min Rain = 0
KTAS 201151Z 15002KT 17/16 A2983 RMK A01 T01680156  RH  092%=      5-min Rain = 0
KTAS 201152Z 13002KT 17/16 A2983 RMK A01 T01700158  RH  093%=      5-min Rain = 0
KTAS 201153Z 11001KT 17/16 A2983 RMK A01 T01720159  RH  092%=      5-min Rain = 0
KTAS 201154Z 10002KT 17/16 A2983 RMK A01 T01710158  RH  092%=      5-min Rain = 0
KTAS 201155Z 11002KT 17/16 A2983 RMK A01 T01710156  RH  091%=      5-min Rain = 0
KTAS 201156Z 10002KT 17/16 A2983 RMK A01 T01700155  RH  091%=      5-min Rain = 0
KTAS 201157Z 10002KT 17/15 A2983 RMK A01 T01700154  RH  090%=      5-min Rain = 0
KTAS 201158Z 09002KT 17/15 A2983 RMK A01 T01680150  RH  089%=      5-min Rain = 0
KTAS 201159Z 10002KT 17/15 A2983 RMK A01 T01670148  RH  089%=      5-min Rain = 0
KTAS 201200Z 10002KT 17/15 A2983 RMK A01 T01650146  RH  089%=      5-min Rain = 0
KTAS 201201Z 11002KT 17/15 A2983 RMK A01 T01650146  RH  089%=      5-min Rain = 0
KTAS 201202Z 13002KT 16/15 A2983 RMK A01 T01640145  RH  089%=      5-min Rain = 0
KTAS 201203Z 13002KT 16/15 A2983 RMK A01 T01640146  RH  089%=      5-min Rain = 0
KTAS 201204Z 14003KT 17/15 A2983 RMK A01 T01650150  RH  091%=      5-min Rain = 0
KTAS 201205Z 15003KT 17/15 A2983 RMK A01 T01670153  RH  091%=      5-min Rain = 0
KTAS 201206Z 15002KT 17/15 A2983 RMK A01 T01680153  RH  091%=      5-min Rain = 0
KTAS 201207Z 15002KT 17/15 A2983 RMK A01 T01670153  RH  091%=      5-min Rain = 0
KTAS 201208Z 14001KT 17/15 A2983 RMK A01 T01680153  RH  091%=      5-min Rain = 0
KTAS 201209Z 14002KT 17/15 A2983 RMK A01 T01680153  RH  091%=      5-min Rain = 0
KTAS 201210Z 13002KT 17/15 A2983 RMK A01 T01680153  RH  091%=      5-min Rain = 0
KTAS 201211Z 13002KT 17/15 A2983 RMK A01 T01680153  RH  091%=      5-min Rain = 0
KTAS 201212Z 14003KT 17/15 A2983 RMK A01 T01690154  RH  091%=      5-min Rain = 0
KTAS 201213Z 14003KT 17/16 A2983 RMK A01 T01700155  RH  091%=      5-min Rain = 0
KTAS 201214Z 14002KT 17/16 A2983 RMK A01 T01710156  RH  091%=      5-min Rain = 0
KTAS 201215Z 15002KT 17/16 A2983 RMK A01 T01720157  RH  091%=      5-min Rain = 0
KTAS 201216Z 15002KT 17/16 A2983 RMK A01 T01720157  RH  091%=      5-min Rain = 0
KTAS 201217Z 17002KT 17/16 A2983 RMK A01 T01730158  RH  091%=      5-min Rain = 0
KTAS 201218Z 17003KT 17/16 A2983 RMK A01 T01730157  RH  090%=      5-min Rain = 0
KTAS 201219Z 17004KT 17/16 A2983 RMK A01 T01730156  RH  090%=      5-min Rain = 0
KTAS 201220Z 17005KT 17/16 A2983 RMK A01 T01730157  RH  090%=      5-min Rain = 0
KTAS 201221Z 17005KT 17/16 A2983 RMK A01 T01740158  RH  091%=      5-min Rain = 0
KTAS 201222Z 17005KT 18/16 A2983 RMK A01 T01750159  RH  090%=      5-min Rain = 0
KTAS 201223Z 17005KT 18/16 A2983 RMK A01 T01750159  RH  090%=      5-min Rain = 0
KTAS 201224Z 17005KT 18/16 A2983 RMK A01 T01760159  RH  090%=      5-min Rain = 0
KTAS 201225Z 17005KT 18/16 A2984 RMK A01 T01760159  RH  090%=      5-min Rain = 0
KTAS 201226Z 18005KT 18/16 A2984 RMK A01 T01760159  RH  090%=      5-min Rain = 0
KTAS 201227Z 18004KT 18/16 A2984 RMK A01 T01760159  RH  090%=      5-min Rain = 0
KTAS 201228Z 18005KT 18/16 A2984 RMK A01 T01760159  RH  090%=      5-min Rain = 0
KTAS 201229Z 19005KT 18/16 A2984 RMK A01 T01760159  RH  090%=      5-min Rain = 0
KTAS 201230Z 18006KT 18/16 A2984 RMK A01 T01760160  RH  090%=      5-min Rain = 0
KTAS 201231Z 19005KT 18/16 A2984 RMK A01 T01760160  RH  091%=      5-min Rain = 0
KTAS 201232Z 19005KT 18/16 A2984 RMK A01 T01770161  RH  091%=      5-min Rain = 0
KTAS 201233Z 19005KT 18/16 A2984 RMK A01 T01770162  RH  091%=      5-min Rain = 0
KTAS 201234Z 18005KT 18/16 A2984 RMK A01 T01780163  RH  091%=      5-min Rain = 0
KTAS 201235Z 18005KT 18/16 A2984 RMK A01 T01790164  RH  091%=      5-min Rain = 0
KTAS 201236Z 18005KT 18/17 A2984 RMK A01 T01800165  RH  091%=      5-min Rain = 0
KTAS 201237Z 17005KT 18/17 A2984 RMK A01 T01810165  RH  091%=      5-min Rain = 0
KTAS 201238Z 17006KT 18/17 A2984 RMK A01 T01820166  RH  091%=      5-min Rain = 0
KTAS 201239Z 17006KT 18/17 A2984 RMK A01 T01830167  RH  090%=      5-min Rain = 0
KTAS 201240Z 18005KT 18/17 A2984 RMK A01 T01840168  RH  090%=      5-min Rain = 0
KTAS 201241Z 17005KT 18/17 A2984 RMK A01 T01840168  RH  090%=      5-min Rain = 0
KTAS 201242Z 17005KT 19/17 A2984 RMK A01 T01850169  RH  090%=      5-min Rain = 0
KTAS 201243Z 17005KT 19/17 A2984 RMK A01 T01860169  RH  090%=      5-min Rain = 0
KTAS 201244Z 18005KT 19/17 A2984 RMK A01 T01860169  RH  090%=      5-min Rain = 0
KTAS 201245Z 18005KT 19/17 A2984 RMK A01 T01870170  RH  090%=      5-min Rain = 0
KTAS 201246Z 19004KT 19/17 A2984 RMK A01 T01880171  RH  090%=      5-min Rain = 0
KTAS 201247Z 18004KT 19/17 A2984 RMK A01 T01880171  RH  089%=      5-min Rain = 0
KTAS 201248Z 18004KT 19/17 A2984 RMK A01 T01890172  RH  090%=      5-min Rain = 0
KTAS 201249Z 18005KT 19/17 A2984 RMK A01 T01900173  RH  089%=      5-min Rain = 0
KTAS 201250Z 18005KT 19/17 A2984 RMK A01 T01910173  RH  089%=      5-min Rain = 0
KTAS 201251Z 19005KT 19/17 A2984 RMK A01 T01910173  RH  089%=      5-min Rain = 0
KTAS 201252Z 18005KT 19/17 A2984 RMK A01 T01920174  RH  089%=      5-min Rain = 0
KTAS 201253Z 19006KT 19/17 A2984 RMK A01 T01930174  RH  089%=      5-min Rain = 0
KTAS 201254Z 19006KT 19/17 A2984 RMK A01 T01930173  RH  088%=      5-min Rain = 0
KTAS 201255Z 19006KT 19/17 A2984 RMK A01 T01930173  RH  088%=      5-min Rain = 0
KTAS 201256Z 19006KT 19/17 A2984 RMK A01 T01930173  RH  088%=      5-min Rain = 0
KTAS 201257Z 19006KT 19/17 A2984 RMK A01 T01940173  RH  088%=      5-min Rain = 0
KTAS 201258Z 19005KT 19/17 A2984 RMK A01 T01940174  RH  088%=      5-min Rain = 0
KTAS 201259Z 20006KT 20/18 A2984 RMK A01 T01950175  RH  088%=      5-min Rain = 0
KTAS 201300Z 20006KT 20/17 A2984 RMK A01 T01950174  RH  088%=      5-min Rain = 0
KTAS 201301Z 19006KT 20/17 A2984 RMK A01 T01950173  RH  087%=      5-min Rain = 0
KTAS 201302Z 19008KT 20/17 A2984 RMK A01 T01950173  RH  087%=      5-min Rain = 0
KTAS 201303Z 19006KT 20/17 A2984 RMK A01 T01960173  RH  087%=      5-min Rain = 0
KTAS 201304Z 19006KT 20/18 A2984 RMK A01 T01970175  RH  087%=      5-min Rain = 0
KTAS 201305Z 19006KT 20/18 A2984 RMK A01 T01980175  RH  087%=      5-min Rain = 0
KTAS 201306Z 19007KT 20/18 A2984 RMK A01 T01990175  RH  086%=      5-min Rain = 0
KTAS 201307Z 19007KT 20/18 A2984 RMK A01 T02000176  RH  086%=      5-min Rain = 0
KTAS 201308Z 19008KT 20/18 A2984 RMK A01 T02000175  RH  086%=      5-min Rain = 0
KTAS 201309Z 19008KT 20/18 A2984 RMK A01 T02010175  RH  085%=      5-min Rain = 0
KTAS 201310Z 19008KT 20/18 A2984 RMK A01 T02010175  RH  085%=      5-min Rain = 0
KTAS 201311Z 19008KT 20/18 A2984 RMK A01 T02010175  RH  085%=      5-min Rain = 0
KTAS 201312Z 19008KT 20/18 A2984 RMK A01 T02020176  RH  085%=      5-min Rain = 0
KTAS 201313Z 18007KT 20/18 A2984 RMK A01 T02030176  RH  085%=      5-min Rain = 0
KTAS 201314Z 18009KT 20/18 A2984 RMK A01 T02040177  RH  084%=      5-min Rain = 0
KTAS 201315Z 18009KT 20/18 A2984 RMK A01 T02040175  RH  084%=      5-min Rain = 0
KTAS 201316Z 18008KT 20/18 A2984 RMK A01 T02040175  RH  084%=      5-min Rain = 0
KTAS 201317Z 19008KT 20/18 A2984 RMK A01 T02040175  RH  083%=      5-min Rain = 0
KTAS 201318Z 18007KT 21/18 A2984 RMK A01 T02050176  RH  084%=      5-min Rain = 0
KTAS 201319Z 18006KT 21/18 A2984 RMK A01 T02060178  RH  084%=      5-min Rain = 0
KTAS 201320Z 19009KT 21/18 A2984 RMK A01 T02060177  RH  083%=      5-min Rain = 0
KTAS 201321Z 19009KT 21/17 A2984 RMK A01 T02060174  RH  082%=      5-min Rain = 0
KTAS 201322Z 19009KT 21/17 A2984 RMK A01 T02060173  RH  082%=      5-min Rain = 0
KTAS 201323Z 19007KT 21/17 A2984 RMK A01 T02050174  RH  082%=      5-min Rain = 0
KTAS 201324Z 18007KT 21/18 A2984 RMK A01 T02060177  RH  083%=      5-min Rain = 0
KTAS 201325Z 18008KT 21/18 A2984 RMK A01 T02070175  RH  082%=      5-min Rain = 0
KTAS 201326Z 19008KT 21/18 A2984 RMK A01 T02070175  RH  082%=      5-min Rain = 0
KTAS 201327Z 19007KT 21/18 A2984 RMK A01 T02080176  RH  082%=      5-min Rain = 0
KTAS 201328Z 19006KT 21/18 A2984 RMK A01 T02090177  RH  082%=      5-min Rain = 0
KTAS 201329Z 19008KT 21/18 A2984 RMK A01 T02100175  RH  081%=      5-min Rain = 0
KTAS 201330Z 20006KT 21/17 A2985 RMK A01 T02100174  RH  080%=      5-min Rain = 0
KTAS 201331Z 21007KT 21/17 A2985 RMK A01 T02100173  RH  079%=      5-min Rain = 0
KTAS 201332Z 21007KT 21/17 A2985 RMK A01 T02110174  RH  079%=      5-min Rain = 0
KTAS 201333Z 21008KT 21/17 A2985 RMK A01 T02120173  RH  078%=      5-min Rain = 0
KTAS 201334Z 21007KT 21/17 A2985 RMK A01 T02130174  RH  078%=      5-min Rain = 0
KTAS 201335Z 20009KT 21/17 A2985 RMK A01 T02140171  RH  076%=      5-min Rain = 0
KTAS 201336Z 21008KT 21/17 A2985 RMK A01 T02140170  RH  076%=      5-min Rain = 0
KTAS 201337Z 20008KT 21/17 A2985 RMK A01 T02140170  RH  076%=      5-min Rain = 0
KTAS 201338Z 20010KT 21/17 A2985 RMK A01 T02140170  RH  076%=      5-min Rain = 0
KTAS 201339Z 19009KT 21/17 A2985 RMK A01 T02130169  RH  076%=      5-min Rain = 0
KTAS 201340Z 20008KT 21/17 A2985 RMK A01 T02140171  RH  076%=      5-min Rain = 0
KTAS 201341Z 20008KT 21/17 A2985 RMK A01 T02140170  RH  076%=      5-min Rain = 0
KTAS 201342Z 21009KT 21/17 A2985 RMK A01 T02130169  RH  076%=      5-min Rain = 0
KTAS 201343Z 20009KT 21/17 A2985 RMK A01 T02140169  RH  076%=      5-min Rain = 0
KTAS 201344Z 20010KT 21/17 A2985 RMK A01 T02140168  RH  075%=      5-min Rain = 0
KTAS 201345Z 21011KT 21/17 A2985 RMK A01 T02140166  RH  074%=      5-min Rain = 0
KTAS 201346Z 20009KT 21/17 A2985 RMK A01 T02140166  RH  074%=      5-min Rain = 0
KTAS 201347Z 21009KT 22/17 A2985 RMK A01 T02150167  RH  074%=      5-min Rain = 0
KTAS 201348Z 20007KT 22/17 A2985 RMK A01 T02150168  RH  074%=      5-min Rain = 0
KTAS 201349Z 20007KT 22/17 A2985 RMK A01 T02160169  RH  075%=      5-min Rain = 0
KTAS 201350Z 20007KT 22/17 A2985 RMK A01 T02170169  RH  074%=      5-min Rain = 0
KTAS 201351Z 20009KT 22/17 A2985 RMK A01 T02180168  RH  073%=      5-min Rain = 0
KTAS 201352Z 20008KT 22/17 A2985 RMK A01 T02190167  RH  072%=      5-min Rain = 0
KTAS 201353Z 19008KT 22/17 A2985 RMK A01 T02200168  RH  072%=      5-min Rain = 0
KTAS 201354Z 20009KT 22/17 A2985 RMK A01 T02210167  RH  072%=      5-min Rain = 0
KTAS 201355Z 20008KT 22/17 A2985 RMK A01 T02210166  RH  071%=      5-min Rain = 0
KTAS 201356Z 20008KT 22/17 A2985 RMK A01 T02220166  RH  070%=      5-min Rain = 0
KTAS 201357Z 20010KT 22/17 A2985 RMK A01 T02230166  RH  070%=      5-min Rain = 0
KTAS 201358Z 21008KT 22/16 A2985 RMK A01 T02230164  RH  069%=      5-min Rain = 0
KTAS 201359Z 20009KT 23/17 A2985 RMK A01 T02250167  RH  070%=      5-min Rain = 0
KTAS 201400Z 21009KT 23/17 A2985 RMK A01 T02270167  RH  069%=      5-min Rain = 0
KTAS 201401Z 20010KT 23/16 A2985 RMK A01 T02270163  RH  067%=      5-min Rain = 0
KTAS 201402Z 20012KT 23/16 A2985 RMK A01 T02270160  RH  066%=      5-min Rain = 0
KTAS 201403Z 20009KT 23/16 A2985 RMK A01 T02280160  RH  066%=      5-min Rain = 0
KTAS 201404Z 19009KT 23/16 A2985 RMK A01 T02290164  RH  067%=      5-min Rain = 0
KTAS 201405Z 20008KT 23/16 A2985 RMK A01 T02310164  RH  066%=      5-min Rain = 0
KTAS 201406Z 20008KT 23/17 A2985 RMK A01 T02320165  RH  066%=      5-min Rain = 0
KTAS 201407Z 20011KT 23/16 A2985 RMK A01 T02330161  RH  064%=      5-min Rain = 0
KTAS 201408Z 21011KT 23/15 A2985 RMK A01 T02340154  RH  061%=      5-min Rain = 0
KTAS 201409Z 21011KT 24/15 A2985 RMK A01 T02350154  RH  060%=      5-min Rain = 0
KTAS 201410Z 20009KT 24/16 A2985 RMK A01 T02360156  RH  061%=      5-min Rain = 0
KTAS 201411Z 20010KT 24/16 A2985 RMK A01 T02370155  RH  060%=      5-min Rain = 0
KTAS 201412Z 21011KT 24/15 A2985 RMK A01 T02380151  RH  058%=      5-min Rain = 0
KTAS 201413Z 21010KT 24/15 A2985 RMK A01 T02390152  RH  058%=      5-min Rain = 0
KTAS 201414Z 21011KT 24/15 A2985 RMK A01 T02400148  RH  056%=      5-min Rain = 0
KTAS 201415Z 21010KT 24/15 A2985 RMK A01 T02410149  RH  056%=      5-min Rain = 0
KTAS 201416Z 21008KT 24/15 A2985 RMK A01 T02430151  RH  057%=      5-min Rain = 0
KTAS 201417Z 20009KT 24/15 A2985 RMK A01 T02440147  RH  055%=      5-min Rain = 0
KTAS 201418Z 20010KT 25/15 A2985 RMK A01 T02450149  RH  055%=      5-min Rain = 0
KTAS 201419Z 21010KT 25/15 A2985 RMK A01 T02460146  RH  054%=      5-min Rain = 0
KTAS 201420Z 20009KT 25/15 A2985 RMK A01 T02470145  RH  053%=      5-min Rain = 0
KTAS 201421Z 21008KT 25/15 A2985 RMK A01 T02480146  RH  053%=      5-min Rain = 0
KTAS 201422Z 21007KT 25/15 A2985 RMK A01 T02490147  RH  053%=      5-min Rain = 0
KTAS 201423Z 21009KT 25/15 A2985 RMK A01 T02510147  RH  053%=      5-min Rain = 0
KTAS 201424Z 21009KT 25/14 A2985 RMK A01 T02510142  RH  051%=      5-min Rain = 0
KTAS 201425Z 21008KT 25/14 A2985 RMK A01 T02520143  RH  051%=      5-min Rain = 0
KTAS 201431Z 21010KT 26/13 A2985 RMK A01 T02570128  RH  044%=      5-min Rain = 0
KTAS 201432Z 21010KT 26/12 A2985 RMK A01 T02580122  RH  043%=      5-min Rain = 0
KTAS 201433Z 21010KT 26/12 A2985 RMK A01 T02580124  RH  043%=      5-min Rain = 0
KTAS 201434Z 21008KT 26/13 A2985 RMK A01 T02590125  RH  043%=      5-min Rain = 0
KTAS 201435Z 22009KT 26/13 A2985 RMK A01 T02600127  RH  044%=      5-min Rain = 0
KTAS 201436Z 23011KT 26/12 A2985 RMK A01 T02610121  RH  042%=      5-min Rain = 0
KTAS 201437Z 22010KT 26/12 A2985 RMK A01 T02620119  RH  041%=      5-min Rain = 0
KTAS 201438Z 22011KT 26/12 A2985 RMK A01 T02620116  RH  040%=      5-min Rain = 0
KTAS 201439Z 22011KT 26/12 A2985 RMK A01 T02630117  RH  040%=      5-min Rain = 0
KTAS 201440Z 22009KT 26/12 A2985 RMK A01 T02640119  RH  040%=      5-min Rain = 0
KTAS 201441Z 22010KT 27/12 A2985 RMK A01 T02660119  RH  040%=      5-min Rain = 0
KTAS 201442Z 23010KT 27/12 A2985 RMK A01 T02670116  RH  039%=      5-min Rain = 0
KTAS 201443Z 23010KT 27/11 A2985 RMK A01 T02670112  RH  038%=      5-min Rain = 0
KTAS 201444Z 22011KT 27/11 A2985 RMK A01 T02680114  RH  038%=      5-min Rain = 0
KTAS 201445Z 22011KT 27/11 A2985 RMK A01 T02680107  RH  036%=      5-min Rain = 0
KTAS 201446Z 22009KT 27/11 A2985 RMK A01 T02690111  RH  037%=      5-min Rain = 0
KTAS 201447Z 22012KT 27/11 A2985 RMK A01 T02710107  RH  036%=      5-min Rain = 0
KTAS 201448Z 22008KT 27/11 A2985 RMK A01 T02710109  RH  036%=      5-min Rain = 0
KTAS 201449Z 21008KT 27/11 A2985 RMK A01 T02740114  RH  037%=      5-min Rain = 0
KTAS 201450Z 21011KT 28/11 A2985 RMK A01 T02750109  RH  035%=      5-min Rain = 0
KTAS 201451Z 21013KT 28/10 A2985 RMK A01 T02760100  RH  033%=      5-min Rain = 0
KTAS 201452Z 21012KT 28/09 A2985 RMK A01 T02760093  RH  032%=      5-min Rain = 0
KTAS 201453Z 21011KT 28/09 A2985 RMK A01 T02760094  RH  032%=      5-min Rain = 0
KTAS 201454Z 22011KT 28/09 A2985 RMK A01 T02770091  RH  031%=      5-min Rain = 0
KTAS 201455Z 22012KT 28/09 A2985 RMK A01 T02780094  RH  031%=      5-min Rain = 0
KTAS 201456Z 21011KT 28/10 A2985 RMK A01 T02790098  RH  032%=      5-min Rain = 0
KTAS 201457Z 22011KT 28/10 A2985 RMK A01 T02800099  RH  032%=      5-min Rain = 0
KTAS 201458Z 22008KT 28/10 A2985 RMK A01 T02820100  RH  032%=      5-min Rain = 0
KTAS 201459Z 22010KT 28/10 A2985 RMK A01 T02840102  RH  032%=      5-min Rain = 0
KTAS 201500Z 22013KT 29/09 A2985 RMK A01 T02850088  RH  029%=      5-min Rain = 0
KTAS 201501Z 22011KT 29/09 A2985 RMK A01 T02850086  RH  029%=      5-min Rain = 0
KTAS 201502Z 22013KT 29/09 A2985 RMK A01 T02850085  RH  029%=      5-min Rain = 0
KTAS 201503Z 22012KT 29/08 A2985 RMK A01 T02850084  RH  028%=      5-min Rain = 0
KTAS 201504Z 22013KT 29/08 A2985 RMK A01 T02860081  RH  028%=      5-min Rain = 0
KTAS 201505Z 21011KT 29/08 A2985 RMK A01 T02860083  RH  028%=      5-min Rain = 0
KTAS 201506Z 21011KT 29/09 A2985 RMK A01 T02880089  RH  029%=      5-min Rain = 0
KTAS 201507Z 21011KT 29/09 A2985 RMK A01 T02880085  RH  028%=      5-min Rain = 0
KTAS 201508Z 22010KT 29/09 A2985 RMK A01 T02890091  RH  029%=      5-min Rain = 0
KTAS 201509Z 22011KT 29/09 A2985 RMK A01 T02900088  RH  028%=      5-min Rain = 0
KTAS 201510Z 22009KT 29/09 A2985 RMK A01 T02920093  RH  029%=      5-min Rain = 0
KTAS 201511Z 22009KT 29/09 A2985 RMK A01 T02930094  RH  029%=      5-min Rain = 0
KTAS 201512Z 22010KT 29/09 A2985 RMK A01 T02940092  RH  028%=      5-min Rain = 0
KTAS 201513Z 22008KT 30/10 A2985 RMK A01 T02960097  RH  029%=      5-min Rain = 0
KTAS 201514Z 21009KT 30/10 A2985 RMK A01 T02970098  RH  029%=      5-min Rain = 0
KTAS 201515Z 21011KT 30/09 A2985 RMK A01 T02980094  RH  028%=      5-min Rain = 0
KTAS 201516Z 21012KT 30/09 A2985 RMK A01 T02980086  RH  027%=      5-min Rain = 0
KTAS 201517Z 21010KT 30/09 A2985 RMK A01 T02970085  RH  027%=      5-min Rain = 0
KTAS 201518Z 22011KT 30/08 A2985 RMK A01 T02970082  RH  026%=      5-min Rain = 0
KTAS 201519Z 22012KT 30/08 A2985 RMK A01 T02980078  RH  025%=      5-min Rain = 0
KTAS 201520Z 22011KT 30/07 A2985 RMK A01 T02980072  RH  024%=      5-min Rain = 0
KTAS 201521Z 22014KT 30/07 A2985 RMK A01 T02980069  RH  024%=      5-min Rain = 0
KTAS 201522Z 23013KT 30/07 A2985 RMK A01 T02970066  RH  023%=      5-min Rain = 0
KTAS 201523Z 22014KT 30/07 A2985 RMK A01 T02970065  RH  023%=      5-min Rain = 0
KTAS 201524Z 22013KT 30/06 A2985 RMK A01 T02970064  RH  023%=      5-min Rain = 0
KTAS 201525Z 23013KT 30/07 A2985 RMK A01 T02960070  RH  024%=      5-min Rain = 0
KTAS 201526Z 22011KT 30/08 A2985 RMK A01 T02980078  RH  025%=      5-min Rain = 0
KTAS 201527Z 22013KT 30/08 A2985 RMK A01 T03000079  RH  025%=      5-min Rain = 0
KTAS 201528Z 21012KT 30/07 A2985 RMK A01 T03000072  RH  024%=      5-min Rain = 0
KTAS 201529Z 22013KT 30/07 A2985 RMK A01 T03000070  RH  024%=      5-min Rain = 0
KTAS 201530Z 22012KT 30/07 A2985 RMK A01 T03010074  RH  024%=      5-min Rain = 0
KTAS 201531Z 23011KT 30/06 A2985 RMK A01 T03020064  RH  023%=      5-min Rain = 0
KTAS 201532Z 22011KT 30/07 A2985 RMK A01 T03020073  RH  024%=      5-min Rain = 0
KTAS 201533Z 22012KT 30/07 A2985 RMK A01 T03030072  RH  024%=      5-min Rain = 0
KTAS 201534Z 22011KT 30/07 A2985 RMK A01 T03040074  RH  024%=      5-min Rain = 0
KTAS 201535Z 22012KT 30/08 A2985 RMK A01 T03040075  RH  024%=      5-min Rain = 0
KTAS 201536Z 22014KT 30/08 A2985 RMK A01 T03040077  RH  024%=      5-min Rain = 0
KTAS 201537Z 22013KT 30/07 A2986 RMK A01 T03040071  RH  023%=      5-min Rain = 0
KTAS 201538Z 23012KT 30/08 A2986 RMK A01 T03040077  RH  024%=      5-min Rain = 0
KTAS 201539Z 23012KT 31/08 A2986 RMK A01 T03060081  RH  025%=      5-min Rain = 0
KTAS 201540Z 23013KT 31/08 A2986 RMK A01 T03080075  RH  023%=      5-min Rain = 0
KTAS 201541Z 23013KT 31/07 A2986 RMK A01 T03070066  RH  022%=      5-min Rain = 0
KTAS 201542Z 22012KT 31/07 A2986 RMK A01 T03070069  RH  022%=      5-min Rain = 0
KTAS 201543Z 23013KT 31/07 A2985 RMK A01 T03080069  RH  022%=      5-min Rain = 0
KTAS 201544Z 23013KT 31/07 A2985 RMK A01 T03060068  RH  022%=      5-min Rain = 0
KTAS 201545Z 23012KT 31/07 A2985 RMK A01 T03060069  RH  023%=      5-min Rain = 0
KTAS 201546Z 23010KT 31/07 A2985 RMK A01 T03070071  RH  023%=      5-min Rain = 0
KTAS 201547Z 24010KT 31/07 A2985 RMK A01 T03090071  RH  023%=      5-min Rain = 0
KTAS 201548Z 23014KT 31/07 A2985 RMK A01 T03090074  RH  023%=      5-min Rain = 0
KTAS 201549Z 24014KT 31/07 A2985 RMK A01 T03080066  RH  022%=      5-min Rain = 0
KTAS 201550Z 24013KT 31/06 A2985 RMK A01 T03080058  RH  021%=      5-min Rain = 0
KTAS 201551Z 24011KT 31/07 A2985 RMK A01 T03090070  RH  022%=      5-min Rain = 0
KTAS 201552Z 23010KT 31/07 A2985 RMK A01 T03100073  RH  023%=      5-min Rain = 0
KTAS 201553Z 23010KT 31/09 A2985 RMK A01 T03110086  RH  025%=      5-min Rain = 0
KTAS 201554Z 24009KT 31/08 A2985 RMK A01 T03140083  RH  024%=      5-min Rain = 0
KTAS 201555Z 23009KT 32/08 A2985 RMK A01 T03150076  RH  023%=      5-min Rain = 0
KTAS 201556Z 23011KT 31/08 A2985 RMK A01 T03140077  RH  023%=      5-min Rain = 0
KTAS 201557Z 23012KT 31/07 A2985 RMK A01 T03140072  RH  022%=      5-min Rain = 0
KTAS 201558Z 24011KT 31/07 A2985 RMK A01 T03130071  RH  022%=      5-min Rain = 0
KTAS 201559Z 24013KT 31/07 A2985 RMK A01 T03130066  RH  021%=      5-min Rain = 0
KTAS 201600Z 24009KT 31/07 A2985 RMK A01 T03130069  RH  022%=      5-min Rain = 0
KTAS 201601Z 24007KT 32/08 A2985 RMK A01 T03150083  RH  024%=      5-min Rain = 0
KTAS 201602Z 24009KT 32/08 A2985 RMK A01 T03170078  RH  023%=      5-min Rain = 0
KTAS 201603Z 24011KT 32/07 A2985 RMK A01 T03170068  RH  021%=      5-min Rain = 0
KTAS 201604Z 25012KT 32/06 A2985 RMK A01 T03170063  RH  020%=      5-min Rain = 0
KTAS 201605Z 25013KT 32/06 A2985 RMK A01 T03160057  RH  020%=      5-min Rain = 0
KTAS 201606Z 24010KT 32/06 A2985 RMK A01 T03150059  RH  020%=      5-min Rain = 0
KTAS 201607Z 25011KT 32/06 A2985 RMK A01 T03150058  RH  020%=      5-min Rain = 0
KTAS 201608Z 24011KT 32/06 A2985 RMK A01 T03150059  RH  020%=      5-min Rain = 0
KTAS 201609Z 24011KT 31/06 A2985 RMK A01 T03140058  RH  020%=      5-min Rain = 0
KTAS 201610Z 24010KT 32/07 A2985 RMK A01 T03150066  RH  021%=      5-min Rain = 0
KTAS 201611Z 23008KT 32/06 A2985 RMK A01 T03150058  RH  020%=      5-min Rain = 0
KTAS 201612Z 23010KT 32/07 A2985 RMK A01 T03160068  RH  021%=      5-min Rain = 0
KTAS 201613Z 24010KT 32/06 A2985 RMK A01 T03160061  RH  020%=      5-min Rain = 0
KTAS 201614Z 23008KT 32/07 A2985 RMK A01 T03160066  RH  021%=      5-min Rain = 0
KTAS 201615Z 24010KT 32/07 A2985 RMK A01 T03180070  RH  021%=      5-min Rain = 0
KTAS 201616Z 24012KT 32/07 A2985 RMK A01 T03170066  RH  021%=      5-min Rain = 0
KTAS 201617Z 24011KT 32/06 A2985 RMK A01 T03160061  RH  020%=      5-min Rain = 0
KTAS 201618Z 23011KT 32/07 A2985 RMK A01 T03160067  RH  021%=      5-min Rain = 0
KTAS 201619Z 24011KT 32/07 A2985 RMK A01 T03170068  RH  021%=      5-min Rain = 0
KTAS 201620Z 23011KT 32/07 A2985 RMK A01 T03170067  RH  021%=      5-min Rain = 0
KTAS 201621Z 23010KT 32/07 A2985 RMK A01 T03180066  RH  021%=      5-min Rain = 0
KTAS 201622Z 23010KT 32/08 A2985 RMK A01 T03190076  RH  022%=      5-min Rain = 0
KTAS 201623Z 23011KT 32/07 A2985 RMK A01 T03200071  RH  021%=      5-min Rain = 0
KTAS 201624Z 23011KT 32/07 A2985 RMK A01 T03200066  RH  020%=      5-min Rain = 0
KTAS 201625Z 22009KT 32/07 A2985 RMK A01 T03200067  RH  021%=      5-min Rain = 0
KTAS 201626Z 22011KT 32/07 A2985 RMK A01 T03210069  RH  021%=      5-min Rain = 0
KTAS 201627Z 22010KT 32/07 A2985 RMK A01 T03210071  RH  021%=      5-min Rain = 0
KTAS 201628Z 24011KT 32/07 A2985 RMK A01 T03230074  RH  021%=      5-min Rain = 0
KTAS 201629Z 24011KT 32/07 A2985 RMK A01 T03230065  RH  020%=      5-min Rain = 0
KTAS 201630Z 24010KT 32/06 A2985 RMK A01 T03230061  RH  020%=      5-min Rain = 0
KTAS 201631Z 23008KT 32/07 A2985 RMK A01 T03230065  RH  020%=      5-min Rain = 0
KTAS 201632Z 24011KT 33/07 A2985 RMK A01 T03250072  RH  021%=      5-min Rain = 0
KTAS 201633Z 24010KT 33/06 A2985 RMK A01 T03250063  RH  019%=      5-min Rain = 0
KTAS 201634Z 23009KT 32/07 A2985 RMK A01 T03240066  RH  020%=      5-min Rain = 0
KTAS 201635Z 23009KT 33/07 A2985 RMK A01 T03250072  RH  021%=      5-min Rain = 0
KTAS 201641Z 22009KT 33/07 A2985 RMK A01 T03280065  RH  019%=      5-min Rain = 0
KTAS 201642Z 22010KT 33/07 A2985 RMK A01 T03290072  RH  020%=      5-min Rain = 0
KTAS 201643Z 22010KT 33/07 A2985 RMK A01 T03300071  RH  020%=      5-min Rain = 0
KTAS 201644Z 22010KT 33/07 A2985 RMK A01 T03290065  RH  019%=      5-min Rain = 0
KTAS 201645Z 22010KT 33/06 A2985 RMK A01 T03290061  RH  019%=      5-min Rain = 0
KTAS 201646Z 23008G13KT 33/07 A2985 RMK A01 T03290071  RH  020%=      5-min Rain = 0
KTAS 201647Z 21010KT 33/07 A2985 RMK A01 T03310069  RH  020%=      5-min Rain = 0
KTAS 201648Z 22009KT 33/06 A2985 RMK A01 T03300063  RH  019%=      5-min Rain = 0
KTAS 201649Z 21007KT 33/07 A2985 RMK A01 T03290068  RH  020%=      5-min Rain = 0
KTAS 201650Z 21010KT 33/07 A2985 RMK A01 T03300067  RH  020%=      5-min Rain = 0
KTAS 201651Z 23008KT 33/06 A2985 RMK A01 T03310064  RH  019%=      5-min Rain = 0
KTAS 201652Z 23010KT 33/07 A2985 RMK A01 T03320069  RH  020%=      5-min Rain = 0
KTAS 201653Z 23012KT 33/06 A2985 RMK A01 T03330062  RH  019%=      5-min Rain = 0
KTAS 201654Z 22011KT 33/06 A2985 RMK A01 T03310057  RH  018%=      5-min Rain = 0
KTAS 201655Z 22008KT 33/06 A2985 RMK A01 T03310064  RH  019%=      5-min Rain = 0
KTAS 201656Z 22009KT 33/07 A2985 RMK A01 T03330069  RH  019%=      5-min Rain = 0
KTAS 201657Z 22010KT 33/07 A2985 RMK A01 T03340065  RH  019%=      5-min Rain = 0
KTAS 201658Z 22009KT 33/07 A2985 RMK A01 T03340066  RH  019%=      5-min Rain = 0
KTAS 201659Z 21008KT 33/06 A2985 RMK A01 T03340059  RH  018%=      5-min Rain = 0
KTAS 201700Z 22009KT 34/07 A2985 RMK A01 T03350071  RH  020%=      5-min Rain = 0
KTAS 201701Z 22010KT 34/06 A2985 RMK A01 T03360062  RH  018%=      5-min Rain = 0
KTAS 201702Z 22009KT 34/06 A2985 RMK A01 T03370064  RH  018%=      5-min Rain = 0
KTAS 201703Z 21010KT 34/06 A2985 RMK A01 T03370063  RH  018%=      5-min Rain = 0
KTAS 201704Z 22008KT 34/07 A2985 RMK A01 T03380070  RH  019%=      5-min Rain = 0
KTAS 201705Z 22009KT 34/07 A2985 RMK A01 T03410072  RH  019%=      5-min Rain = 0
KTAS 201706Z 21008KT 34/06 A2985 RMK A01 T03410058  RH  017%=      5-min Rain = 0
KTAS 201707Z 20010KT 34/07 A2985 RMK A01 T03410065  RH  018%=      5-min Rain = 0
KTAS 201708Z 20007KT 34/06 A2985 RMK A01 T03400058  RH  017%=      5-min Rain = 0
KTAS 201709Z 21009KT 34/06 A2985 RMK A01 T03400062  RH  018%=      5-min Rain = 0
KTAS 201710Z 22009KT 34/06 A2985 RMK A01 T03410061  RH  018%=      5-min Rain = 0
KTAS 201711Z 21010KT 34/06 A2985 RMK A01 T03420058  RH  017%=      5-min Rain = 0
KTAS 201712Z 21011KT 34/04 A2985 RMK A01 T03420036  RH  015%=      5-min Rain = 0
KTAS 201713Z 22008KT 34/04 A2985 RMK A01 T03400036  RH  015%=      5-min Rain = 0
KTAS 201714Z 22009KT 34/04 A2985 RMK A01 T03420042  RH  015%=      5-min Rain = 0
KTAS 201715Z 21008KT 34/05 A2984 RMK A01 T03430045  RH  016%=      5-min Rain = 0
KTAS 201716Z 21008KT 35/05 A2984 RMK A01 T03460054  RH  016%=      5-min Rain = 0
KTAS 201717Z 21011KT 35/06 A2984 RMK A01 T03460055  RH  016%=      5-min Rain = 0
KTAS 201718Z 21009KT 35/05 A2984 RMK A01 T03450048  RH  016%=      5-min Rain = 0
KTAS 201719Z 20009KT 35/06 A2984 RMK A01 T03470056  RH  016%=      5-min Rain = 0
KTAS 201720Z 22010KT 35/03 A2984 RMK A01 T03470032  RH  014%=      5-min Rain = 0
KTAS 201721Z 23010KT 35/03 A2984 RMK A01 T03480030  RH  014%=      5-min Rain = 0
KTAS 201722Z 22008KT 35/04 A2984 RMK A01 T03490042  RH  015%=      5-min Rain = 0
KTAS 201723Z 22009KT 35/05 A2984 RMK A01 T03510045  RH  015%=      5-min Rain = 0
KTAS 201724Z 22009G14KT 35/04 A2984 RMK A01 T03500043  RH  015%=      5-min Rain = 0
KTAS 201725Z 23009KT 35/04 A2984 RMK A01 T03520042  RH  014%=      5-min Rain = 0
KTAS 201726Z 23008KT 35/02 A2984 RMK A01 T03520015  RH  012%=      5-min Rain = 0
KTAS 201727Z 21010KT 35/03 A2984 RMK A01 T03530027  RH  013%=      5-min Rain = 0
KTAS 201728Z 21009KT 35/04 A2984 RMK A01 T03530035  RH  014%=      5-min Rain = 0
KTAS 201729Z 22008KT 35/03 A2984 RMK A01 T03530026  RH  013%=      5-min Rain = 0
KTAS 201730Z 19010KT 35/02 A2984 RMK A01 T03520023  RH  013%=      5-min Rain = 0
KTAS 201731Z 21011KT 35/04 A2984 RMK A01 T03520038  RH  014%=      5-min Rain = 0
KTAS 201732Z 23010KT 35/02 A2984 RMK A01 T03520020  RH  012%=      5-min Rain = 0
KTAS 201733Z 21012KT 35/02 A2984 RMK A01 T03530021  RH  012%=      5-min Rain = 0
KTAS 201734Z 20011KT 35/03 A2984 RMK A01 T03530032  RH  013%=      5-min Rain = 0
KTAS 201735Z 19011KT 35/03 A2984 RMK A01 T03520025  RH  013%=      5-min Rain = 0
KTAS 201736Z 20010KT 35/03 A2984 RMK A01 T03510029  RH  013%=      5-min Rain = 0
KTAS 201737Z 21012KT 35/04 A2984 RMK A01 T03530036  RH  014%=      5-min Rain = 0
KTAS 201738Z 21009KT 35/02 A2984 RMK A01 T03520021  RH  013%=      5-min Rain = 0
KTAS 201739Z 19011KT 35/03 A2984 RMK A01 T03530033  RH  014%=      5-min Rain = 0
KTAS 201740Z 19010KT 36/05 A2984 RMK A01 T03550048  RH  015%=      5-min Rain = 0
KTAS 201741Z 19010KT 36/04 A2984 RMK A01 T03570041  RH  014%=      5-min Rain = 0
KTAS 201742Z 19010KT 36/04 A2984 RMK A01 T03560039  RH  014%=      5-min Rain = 0
KTAS 201743Z 19011KT 36/05 A2984 RMK A01 T03560047  RH  015%=      5-min Rain = 0
KTAS 201744Z 20011KT 36/04 A2984 RMK A01 T03560035  RH  014%=      5-min Rain = 0
KTAS 201745Z 20008KT 35/03 A2984 RMK A01 T03530034  RH  014%=      5-min Rain = 0
KTAS 201746Z 20009KT 35/05 A2984 RMK A01 T03540053  RH  015%=      5-min Rain = 0
KTAS 201747Z 19010KT 36/06 A2984 RMK A01 T03580056  RH  016%=      5-min Rain = 0
KTAS 201748Z 19009KT 36/05 A2984 RMK A01 T03590054  RH  015%=      5-min Rain = 0
KTAS 201749Z 20007KT 36/06 A2984 RMK A01 T03600055  RH  015%=      5-min Rain = 0
KTAS 201750Z 20009KT 36/06 A2984 RMK A01 T03620055  RH  015%=      5-min Rain = 0
KTAS 201751Z 19010KT 36/05 A2984 RMK A01 T03620049  RH  014%=      5-min Rain = 0
KTAS 201752Z 19011KT 36/05 A2984 RMK A01 T03620047  RH  014%=      5-min Rain = 0
KTAS 201753Z 21013KT 36/04 A2984 RMK A01 T03610041  RH  014%=      5-min Rain = 0
KTAS 201754Z 21012KT 36/03 A2984 RMK A01 T03580032  RH  013%=      5-min Rain = 0
KTAS 201755Z 20008KT 36/04 A2984 RMK A01 T03570041  RH  014%=      5-min Rain = 0
KTAS 201756Z 21009KT 36/06 A2984 RMK A01 T03600055  RH  015%=      5-min Rain = 0
KTAS 201757Z 21011KT 36/05 A2984 RMK A01 T03610048  RH  014%=      5-min Rain = 0
KTAS 201758Z 19012KT 36/04 A2984 RMK A01 T03610041  RH  014%=      5-min Rain = 0
KTAS 201759Z 21011KT 36/04 A2984 RMK A01 T03600044  RH  014%=      5-min Rain = 0
KTAS 201800Z 19013KT 36/04 A2984 RMK A01 T03590039  RH  014%=      5-min Rain = 0
KTAS 201801Z 20011KT 36/04 A2984 RMK A01 T03580043  RH  014%=      5-min Rain = 0
KTAS 201802Z 20013KT 36/05 A2984 RMK A01 T03590046  RH  014%=      5-min Rain = 0
KTAS 201803Z 20014KT 36/04 A2984 RMK A01 T03590037  RH  013%=      5-min Rain = 0
KTAS 201804Z 20012KT 36/04 A2984 RMK A01 T03590042  RH  014%=      5-min Rain = 0
KTAS 201805Z 20011KT 36/05 A2984 RMK A01 T03600050  RH  015%=      5-min Rain = 0
KTAS 201806Z 20012KT 36/05 A2984 RMK A01 T03600049  RH  015%=      5-min Rain = 0
KTAS 201807Z 22010KT 36/04 A2984 RMK A01 T03600043  RH  014%=      5-min Rain = 0
KTAS 201808Z 22008KT 36/04 A2984 RMK A01 T03620042  RH  014%=      5-min Rain = 0
KTAS 201809Z 21008G14KT 36/05 A2984 RMK A01 T03640050  RH  014%=      5-min Rain = 0
KTAS 201810Z 20012KT 37/06 A2984 RMK A01 T03650056  RH  015%=      5-min Rain = 0
KTAS 201811Z 20011KT 36/05 A2984 RMK A01 T03640048  RH  014%=      5-min Rain = 0
KTAS 201812Z 20011KT 36/04 A2984 RMK A01 T03630043  RH  014%=      5-min Rain = 0
KTAS 201813Z 19010KT 36/06 A2984 RMK A01 T03630056  RH  015%=      5-min Rain = 0
KTAS 201814Z 19010KT 36/06 A2984 RMK A01 T03640057  RH  015%=      5-min Rain = 0
KTAS 201815Z 18011G17KT 37/06 A2984 RMK A01 T03650055  RH  015%=      5-min Rain = 0
KTAS 201816Z 19011KT 37/06 A2984 RMK A01 T03660062  RH  015%=      5-min Rain = 0
KTAS 201817Z 20011KT 36/04 A2984 RMK A01 T03640043  RH  014%=      5-min Rain = 0
KTAS 201818Z 19013G18KT 36/05 A2984 RMK A01 T03630052  RH  015%=      5-min Rain = 0
KTAS 201819Z 19012KT 36/07 A2984 RMK A01 T03640065  RH  016%=      5-min Rain = 0
KTAS 201820Z 19013KT 37/06 A2984 RMK A01 T03650056  RH  015%=      5-min Rain = 0
KTAS 201821Z 19010KT 36/06 A2984 RMK A01 T03640055  RH  015%=      5-min Rain = 0
KTAS 201822Z 19010KT 37/06 A2984 RMK A01 T03650062  RH  016%=      5-min Rain = 0
KTAS 201823Z 18012KT 37/06 A2984 RMK A01 T03660059  RH  015%=      5-min Rain = 0
KTAS 201824Z 18010G15KT 37/07 A2984 RMK A01 T03660067  RH  016%=      5-min Rain = 0
KTAS 201825Z 19013KT 37/06 A2984 RMK A01 T03660057  RH  015%=      5-min Rain = 0
KTAS 201826Z 20011KT 37/06 A2984 RMK A01 T03670057  RH  015%=      5-min Rain = 0
KTAS 201827Z 20009KT 37/06 A2984 RMK A01 T03670058  RH  015%=      5-min Rain = 0
KTAS 201828Z 19008KT 37/07 A2984 RMK A01 T03690066  RH  016%=      5-min Rain = 0
KTAS 201829Z 19012KT 37/06 A2984 RMK A01 T03700060  RH  015%=      5-min Rain = 0
KTAS 201830Z 19010KT 37/06 A2984 RMK A01 T03690057  RH  015%=      5-min Rain = 0
KTAS 201831Z 18010KT 37/06 A2983 RMK A01 T03690056  RH  015%=      5-min Rain = 0
KTAS 201832Z 17008KT 37/07 A2983 RMK A01 T03700065  RH  015%=      5-min Rain = 0
KTAS 201833Z 18010KT 37/06 A2983 RMK A01 T03710059  RH  015%=      5-min Rain = 0
KTAS 201834Z 21010KT 37/04 A2983 RMK A01 T03700043  RH  013%=      5-min Rain = 0
KTAS 201835Z 20010KT 37/06 A2983 RMK A01 T03700058  RH  015%=      5-min Rain = 0
KTAS 201836Z 19010KT 37/06 A2983 RMK A01 T03710059  RH  015%=      5-min Rain = 0
KTAS 201837Z 18013KT 37/05 A2983 RMK A01 T03710050  RH  014%=      5-min Rain = 0
KTAS 201838Z 18009KT 37/06 A2983 RMK A01 T03710061  RH  015%=      5-min Rain = 0
KTAS 201839Z 18012KT 37/06 A2983 RMK A01 T03720058  RH  015%=      5-min Rain = 0
KTAS 201840Z 18011KT 37/06 A2983 RMK A01 T03730064  RH  015%=      5-min Rain = 0
KTAS 201841Z 19013KT 37/06 A2983 RMK A01 T03740057  RH  014%=      5-min Rain = 0
KTAS 201842Z 19012KT 37/06 A2983 RMK A01 T03730056  RH  014%=      5-min Rain = 0
KTAS 201843Z 19012KT 37/05 A2983 RMK A01 T03720045  RH  013%=      5-min Rain = 0
KTAS 201844Z 20010KT 37/06 A2983 RMK A01 T03720055  RH  014%=      5-min Rain = 0
KTAS 201845Z 21009KT 37/07 A2983 RMK A01 T03740065  RH  015%=      5-min Rain = 0
KTAS 201846Z 19011G17KT 38/06 A2983 RMK A01 T03760064  RH  015%=      5-min Rain = 0
KTAS 201847Z 21013KT 38/06 A2983 RMK A01 T03770059  RH  014%=      5-min Rain = 0
KTAS 201848Z 21009KT 38/05 A2983 RMK A01 T03760047  RH  013%=      5-min Rain = 0
KTAS 201849Z 21013KT 38/05 A2983 RMK A01 T03760052  RH  014%=      5-min Rain = 0
KTAS 201850Z 21012KT 37/04 A2983 RMK A01 T03740040  RH  013%=      5-min Rain = 0
KTAS 201851Z 21012KT 37/05 A2983 RMK A01 T03740045  RH  013%=      5-min Rain = 0
KTAS 201852Z 20012KT 38/05 A2983 RMK A01 T03750048  RH  013%=      5-min Rain = 0
KTAS 201853Z 19011KT 37/06 A2983 RMK A01 T03740057  RH  014%=      5-min Rain = 0
KTAS 201854Z 20011KT 38/06 A2983 RMK A01 T03750056  RH  014%=      5-min Rain = 0
KTAS 201855Z 21011KT 37/05 A2983 RMK A01 T03740047  RH  013%=      5-min Rain = 0
KTAS 201856Z 20010KT 37/05 A2983 RMK A01 T03740048  RH  013%=      5-min Rain = 0
KTAS 201857Z 21013G18KT 38/06 A2983 RMK A01 T03760055  RH  014%=      5-min Rain = 0
KTAS 201858Z 21014KT 38/04 A2983 RMK A01 T03760035  RH  012%=      5-min Rain = 0
KTAS 201859Z 22015KT 38/03 A2983 RMK A01 T03750030  RH  012%=      5-min Rain = 0
KTAS 201900Z 21011KT 38/04 A2983 RMK A01 T03760044  RH  013%=      5-min Rain = 0
KTAS 201901Z 21011KT 38/06 A2983 RMK A01 T03780056  RH  014%=      5-min Rain = 0
KTAS 201902Z 21009KT 38/05 A2983 RMK A01 T03800053  RH  013%=      5-min Rain = 0
KTAS 201903Z 20011KT 38/05 A2982 RMK A01 T03810050  RH  013%=      5-min Rain = 0
KTAS 201904Z 19014KT 38/05 A2982 RMK A01 T03820048  RH  013%=      5-min Rain = 0
KTAS 201905Z 20015KT 38/04 A2982 RMK A01 T03790038  RH  012%=      5-min Rain = 0
KTAS 201906Z 20017KT 38/03 A2982 RMK A01 T03760027  RH  011%=      5-min Rain = 0
KTAS 201907Z 20012G18KT 38/03 A2982 RMK A01 T03760027  RH  011%=      5-min Rain = 0
KTAS 201908Z 20010KT 38/05 A2982 RMK A01 T03770045  RH  013%=      5-min Rain = 0
KTAS 201909Z 21013G21KT 38/04 A2982 RMK A01 T03790035  RH  012%=      5-min Rain = 0
KTAS 201910Z 20017KT 38/02 A2982 RMK A01 T03780022  RH  011%=      5-min Rain = 0
KTAS 201911Z 21017KT 38/02 A2982 RMK A01 T03770020  RH  011%=      5-min Rain = 0
KTAS 201912Z 22014KT 38/03 A2982 RMK A01 T03770027  RH  011%=      5-min Rain = 0
KTAS 201913Z 21015KT 38/03 A2982 RMK A01 T03780027  RH  011%=      5-min Rain = 0
KTAS 201914Z 21015KT 38/02 A2982 RMK A01 T03780022  RH  011%=      5-min Rain = 0
KTAS 201915Z 21018KT 38/03 A2982 RMK A01 T03780025  RH  011%=      5-min Rain = 0
KTAS 201916Z 21017KT 38/02 A2982 RMK A01 T03780018  RH  011%=      5-min Rain = 0
KTAS 201917Z 19016KT 38/02 A2982 RMK A01 T03780024  RH  011%=      5-min Rain = 0
KTAS 201918Z 21013KT 38/03 A2982 RMK A01 T03770027  RH  011%=      5-min Rain = 0
KTAS 201919Z 21013KT 38/03 A2982 RMK A01 T03780032  RH  012%=      5-min Rain = 0
KTAS 201920Z 23015KT 38/03 A2982 RMK A01 T03810025  RH  011%=      5-min Rain = 0
KTAS 201921Z 22012G17KT 38/03 A2982 RMK A01 T03820027  RH  011%=      5-min Rain = 0
KTAS 201922Z 23016KT 38/02 A2982 RMK A01 T03830017  RH  010%=      5-min Rain = 0
KTAS 201923Z 23014G20KT 38/03 A2982 RMK A01 T03820026  RH  011%=      5-min Rain = 0
KTAS 201924Z 22016G21KT 38/01 A2982 RMK A01 T03820014  RH  010%=      5-min Rain = 0
KTAS 201925Z 22018KT 38/02 A2982 RMK A01 T03820016  RH  010%=      5-min Rain = 0
KTAS 201926Z 22015KT 38/01 A2982 RMK A01 T03800010  RH  010%=      5-min Rain = 0
KTAS 201927Z 24015KT 38/02 A2982 RMK A01 T03800020  RH  011%=      5-min Rain = 0
KTAS 201928Z 24013KT 38/01 A2982 RMK A01 T03810013  RH  010%=      5-min Rain = 0
KTAS 201929Z 22013G21KT 38/02 A2982 RMK A01 T03810021  RH  011%=      5-min Rain = 0
KTAS 201930Z 21018G23KT 38/02 A2982 RMK A01 T03820016  RH  010%=      5-min Rain = 0
KTAS 201931Z 22016KT 38/02 A2982 RMK A01 T03820021  RH  011%=      5-min Rain = 0
KTAS 201932Z 23014KT 38/02 A2982 RMK A01 T03810015  RH  010%=      5-min Rain = 0
KTAS 201933Z 22016KT 38/01 A2982 RMK A01 T03810011  RH  010%=      5-min Rain = 0
KTAS 201934Z 21015KT 38/01 A2982 RMK A01 T03790014  RH  010%=      5-min Rain = 0
KTAS 201935Z 20014KT 38/02 A2982 RMK A01 T03790018  RH  011%=      5-min Rain = 0
KTAS 201936Z 21011KT 38/01 A2982 RMK A01 T03800013  RH  010%=      5-min Rain = 0
KTAS 201937Z 21013G20KT 38/03 A2982 RMK A01 T03820025  RH  011%=      5-min Rain = 0
KTAS 201938Z 21016G21KT 38/02 A2982 RMK A01 T03840020  RH  010%=      5-min Rain = 0
KTAS 201939Z 22015KT 38/02 A2982 RMK A01 T03830018  RH  010%=      5-min Rain = 0
KTAS 201940Z 23019KT 38/02 A2981 RMK A01 T03830016  RH  010%=      5-min Rain = 0
KTAS 201941Z 22017KT 38/02 A2982 RMK A01 T03820015  RH  010%=      5-min Rain = 0
KTAS 201942Z 23014KT 38/01 A2982 RMK A01 T03820014  RH  010%=      5-min Rain = 0
KTAS 201943Z 23010KT 38/02 A2981 RMK A01 T03830022  RH  011%=      5-min Rain = 0
KTAS 201944Z 22011KT 38/03 A2981 RMK A01 T03840027  RH  011%=      5-min Rain = 0
KTAS 201945Z 22014G21KT 39/03 A2981 RMK A01 T03860028  RH  011%=      5-min Rain = 0
KTAS 201946Z 21015KT 39/03 A2982 RMK A01 T03860030  RH  011%=      5-min Rain = 0
KTAS 201947Z 21015KT 39/02 A2981 RMK A01 T03850017  RH  010%=      5-min Rain = 0
KTAS 201948Z 22015KT 38/03 A2981 RMK A01 T03840027  RH  011%=      5-min Rain = 0
KTAS 201949Z 21016KT 39/02 A2981 RMK A01 T03850016  RH  010%=      5-min Rain = 0
KTAS 201950Z 21015KT 38/01 A2981 RMK A01 T03840011  RH  010%=      5-min Rain = 0
KTAS 201951Z 21013KT 38/02 A2981 RMK A01 T03840021  RH  011%=      5-min Rain = 0
KTAS 201952Z 21012KT 38/02 A2981 RMK A01 T03840023  RH  011%=      5-min Rain = 0
KTAS 201953Z 20011KT 38/02 A2981 RMK A01 T03820017  RH  010%=      5-min Rain = 0
KTAS 201954Z 21016G24KT 38/02 A2981 RMK A01 T03830016  RH  010%=      5-min Rain = 0
KTAS 201955Z 23014G19KT 38/02 A2981 RMK A01 T03830022  RH  011%=      5-min Rain = 0
KTAS 201956Z 22014KT 38/01 A2981 RMK A01 T03840014  RH  010%=      5-min Rain = 0
KTAS 201957Z 23013KT 38/01 A2981 RMK A01 T03830014  RH  010%=      5-min Rain = 0
KTAS 201958Z 23012KT 38/03 A2981 RMK A01 T03840026  RH  011%=      5-min Rain = 0
KTAS 201959Z 23014KT 39/02 A2981 RMK A01 T03860021  RH  010%=      5-min Rain = 0
KTAS 202000Z 21013KT 39/02 A2981 RMK A01 T03860021  RH  010%=      5-min Rain = 0
KTAS 202001Z 19013KT 39/02 A2981 RMK A01 T03850017  RH  010%=      5-min Rain = 0
KTAS 202002Z 19010KT 38/02 A2981 RMK A01 T03830020  RH  010%=      5-min Rain = 0
KTAS 202003Z 21010KT 38/03 A2981 RMK A01 T03840029  RH  011%=      5-min Rain = 0
KTAS 202004Z 22014KT 39/03 A2981 RMK A01 T03860029  RH  011%=      5-min Rain = 0
KTAS 202005Z 22013KT 39/01 A2981 RMK A01 T03860014  RH  010%=      5-min Rain = 0
KTAS 202006Z 23012KT 39/02 A2981 RMK A01 T03860019  RH  010%=      5-min Rain = 0
KTAS 202007Z 21011G16KT 39/02 A2981 RMK A01 T03860021  RH  010%=      5-min Rain = 0
KTAS 202008Z 24012G17KT 39/01 A2981 RMK A01 T03850014  RH  010%=      5-min Rain = 0
KTAS 202009Z 23011KT 38/01 A2981 RMK A01 T03840010  RH  010%=      5-min Rain = 0
KTAS 202010Z 22011KT 39/02 A2981 RMK A01 T03850022  RH  010%=      5-min Rain = 0
KTAS 202011Z 22017G22KT 39/02 A2981 RMK A01 T03870023  RH  010%=      5-min Rain = 0
KTAS 202012Z 22013KT 39/01 A2981 RMK A01 T03860010  RH  010%=      5-min Rain = 0
KTAS 202013Z 23008KT 39/00 A2981 RMK A01 T03850004  RH  009%=      5-min Rain = 0
KTAS 202014Z 22011KT 38/01 A298 RMK A01 T03840007  RH  010%=      5-min Rain = 0
KTAS 202015Z 22017KT 39/02 A298 RMK A01 T03850015  RH  010%=      5-min Rain = 0
KTAS 202016Z 22018KT 39/01 A298 RMK A01 T03850009  RH  010%=      5-min Rain = 0
KTAS 202017Z 21016KT 38/01 A298 RMK A01 T03840012  RH  010%=      5-min Rain = 0
KTAS 202018Z 20013KT 39/03 A298 RMK A01 T03850026  RH  011%=      5-min Rain = 0
KTAS 202019Z 19012KT 39/03 A298 RMK A01 T03860025  RH  011%=      5-min Rain = 0
KTAS 202020Z 19016KT 39/03 A298 RMK A01 T03860026  RH  011%=      5-min Rain = 0
KTAS 202021Z 19013KT 38/01 A298 RMK A01 T03840012  RH  010%=      5-min Rain = 0
KTAS 202022Z 19008KT 38/02 A298 RMK A01 T03830016  RH  010%=      5-min Rain = 0
KTAS 202023Z 21009KT 38/03 A298 RMK A01 T03840031  RH  011%=      5-min Rain = 0
KTAS 202024Z 23009KT 39/04 A298 RMK A01 T03870037  RH  012%=      5-min Rain = 0
KTAS 202025Z 25012KT 39/02 A298 RMK A01 T03890019  RH  010%=      5-min Rain = 0
KTAS 202026Z 25009KT 39/01 A298 RMK A01 T03870011  RH  010%=      5-min Rain = 0
KTAS 202027Z 25011G16KT 39/02 A298 RMK A01 T03860023  RH  011%=      5-min Rain = 0
KTAS 202028Z 25011KT 39/01 A298 RMK A01 T03860009  RH  010%=      5-min Rain = 0
KTAS 202029Z 23012KT 39/01 A298 RMK A01 T03860014  RH  010%=      5-min Rain = 0
KTAS 202030Z 23016G21KT 39/01 A298 RMK A01 T03860011  RH  010%=      5-min Rain = 0
KTAS 202031Z 25016KT 39/02 A298 RMK A01 T03870020  RH  010%=      5-min Rain = 0
KTAS 202032Z 24010KT 39/01 A298 RMK A01 T03870013  RH  010%=      5-min Rain = 0
KTAS 202033Z 23010KT 39/02 A298 RMK A01 T03870023  RH  010%=      5-min Rain = 0
KTAS 202034Z 21011KT 39/03 A298 RMK A01 T03900030  RH  011%=      5-min Rain = 0
KTAS 202035Z 22014KT 39/02 A298 RMK A01 T03890019  RH  010%=      5-min Rain = 0
KTAS 202036Z 22019KT 39/01 A298 RMK A01 T03880012  RH  010%=      5-min Rain = 0
KTAS 202037Z 21012G18KT 39/02 A298 RMK A01 T03880022  RH  010%=      5-min Rain = 0
KTAS 202038Z 21011KT 39/03 A298 RMK A01 T03890027  RH  011%=      5-min Rain = 0
KTAS 202039Z 20008KT 39/03 A298 RMK A01 T03900034  RH  011%=      5-min Rain = 0
KTAS 202040Z 20010KT 39/04 A298 RMK A01 T03900036  RH  011%=      5-min Rain = 0
KTAS 202041Z 20010G15KT 39/04 A298 RMK A01 T03900038  RH  011%=      5-min Rain = 0
KTAS 202042Z 19012KT 39/02 A298 RMK A01 T03890019  RH  010%=      5-min Rain = 0
KTAS 202043Z 18012KT 39/02 A298 RMK A01 T03880022  RH  010%=      5-min Rain = 0
KTAS 202044Z 18012KT 39/03 A298 RMK A01 T03880031  RH  011%=      5-min Rain = 0
KTAS 202045Z 21012KT 39/05 A298 RMK A01 T03880045  RH  012%=      5-min Rain = 0
KTAS 202046Z 23014KT 39/03 A2979 RMK A01 T03890026  RH  011%=      5-min Rain = 0
KTAS 202047Z 22015KT 39/01 A2979 RMK A01 T03870014  RH  010%=      5-min Rain = 0
KTAS 202048Z 24014KT 39/02 A2979 RMK A01 T03870024  RH  011%=      5-min Rain = 0
KTAS 202049Z 23016KT 39/02 A2979 RMK A01 T03880020  RH  010%=      5-min Rain = 0
KTAS 202050Z 23014G19KT 39/02 A2979 RMK A01 T03880017  RH  010%=      5-min Rain = 0
KTAS 202051Z 24016KT 39/02 A2979 RMK A01 T03870016  RH  010%=      5-min Rain = 0
KTAS 202052Z 24012KT 39/01 A2979 RMK A01 T03860013  RH  010%=      5-min Rain = 0
KTAS 202053Z 25010KT 39/01 A2979 RMK A01 T03860012  RH  010%=      5-min Rain = 0
KTAS 202054Z 25010KT 39/02 A2979 RMK A01 T03860017  RH  010%=      5-min Rain = 0
KTAS 202055Z 25010KT 39/02 A2979 RMK A01 T03870022  RH  010%=      5-min Rain = 0
KTAS 202056Z 21016G23KT 39/02 A2979 RMK A01 T03870024  RH  011%=      5-min Rain = 0
KTAS 202057Z 21018KT 39/02 A2979 RMK A01 T03880021  RH  010%=      5-min Rain = 0
KTAS 202058Z 22018KT 39/01 A2979 RMK A01 T03860011  RH  010%=      5-min Rain = 0
KTAS 202059Z 22010G18KT 38/M01 A2979 RMK A01 T03831010  RH  008%=      5-min Rain = 0
KTAS 202100Z 23007KT 38/00 A2979 RMK A01 T03820004  RH  009%=      5-min Rain = 0
KTAS 202101Z 23010KT 39/02 A2979 RMK A01 T03850022  RH  011%=      5-min Rain = 0
KTAS 202102Z 23012G17KT 39/02 A2979 RMK A01 T03870015  RH  010%=      5-min Rain = 0
KTAS 202103Z 21013KT 39/01 A2979 RMK A01 T03860006  RH  009%=      5-min Rain = 0
KTAS 202104Z 23012KT 38/01 A2979 RMK A01 T03840014  RH  010%=      5-min Rain = 0
KTAS 202105Z 22012KT 39/02 A2979 RMK A01 T03850016  RH  010%=      5-min Rain = 0
KTAS 202106Z 20011KT 39/02 A2979 RMK A01 T03860022  RH  010%=      5-min Rain = 0
KTAS 202107Z 20012KT 39/03 A2979 RMK A01 T03860025  RH  011%=      5-min Rain = 0
KTAS 202108Z 20013KT 39/03 A2979 RMK A01 T03860029  RH  011%=      5-min Rain = 0
KTAS 202109Z 20013G19KT 39/03 A2979 RMK A01 T03860030  RH  011%=      5-min Rain = 0
KTAS 202110Z 19015KT 39/02 A2978 RMK A01 T03850016  RH  010%=      5-min Rain = 0
KTAS 202111Z 20016KT 38/02 A2978 RMK A01 T03840016  RH  010%=      5-min Rain = 0
KTAS 202112Z 20013KT 39/03 A2978 RMK A01 T03860028  RH  011%=      5-min Rain = 0
KTAS 202113Z 22015G21KT 39/02 A2978 RMK A01 T03870022  RH  010%=      5-min Rain = 0
KTAS 202114Z 23015KT 39/01 A2978 RMK A01 T03870014  RH  010%=      5-min Rain = 0
KTAS 202115Z 24015KT 39/02 A2978 RMK A01 T03870016  RH  010%=      5-min Rain = 0
KTAS 202116Z 24013KT 39/01 A2978 RMK A01 T03870014  RH  010%=      5-min Rain = 0
KTAS 202117Z 25011KT 39/01 A2978 RMK A01 T03860014  RH  010%=      5-min Rain = 0
KTAS 202118Z 24010KT 39/02 A2978 RMK A01 T03860019  RH  010%=      5-min Rain = 0
KTAS 202119Z 23009KT 39/02 A2978 RMK A01 T03880016  RH  010%=      5-min Rain = 0
KTAS 202120Z 22006KT 39/01 A2978 RMK A01 T03880011  RH  010%=      5-min Rain = 0
KTAS 202121Z 21007KT 39/02 A2978 RMK A01 T03880023  RH  010%=      5-min Rain = 0
KTAS 202122Z 21009G14KT 39/01 A2978 RMK A01 T03880013  RH  010%=      5-min Rain = 0
KTAS 202123Z 22011KT 39/03 A2978 RMK A01 T03890031  RH  011%=      5-min Rain = 0
KTAS 202124Z 24012KT 39/03 A2978 RMK A01 T03900027  RH  011%=      5-min Rain = 0
KTAS 202125Z 25009KT 39/02 A2978 RMK A01 T03900021  RH  010%=      5-min Rain = 0
KTAS 202126Z 26010KT 39/02 A2978 RMK A01 T03900022  RH  010%=      5-min Rain = 0
KTAS 202127Z 25008KT 39/02 A2978 RMK A01 T03900020  RH  010%=      5-min Rain = 0
KTAS 202128Z 22009KT 39/03 A2978 RMK A01 T03910025  RH  010%=      5-min Rain = 0
KTAS 202129Z 20009KT 39/02 A2978 RMK A01 T03900020  RH  010%=      5-min Rain = 0
KTAS 202130Z 21012KT 39/03 A2978 RMK A01 T03910032  RH  011%=      5-min Rain = 0
KTAS 202131Z 22011G16KT 39/02 A2978 RMK A01 T03920024  RH  010%=      5-min Rain = 0
KTAS 202132Z 23008KT 39/03 A2978 RMK A01 T03910030  RH  011%=      5-min Rain = 0
KTAS 202133Z 21009KT 39/02 A2978 RMK A01 T03910020  RH  010%=      5-min Rain = 0
KTAS 202134Z 22010KT 39/02 A2978 RMK A01 T03900024  RH  010%=      5-min Rain = 0
KTAS 202135Z 24010KT 39/02 A2978 RMK A01 T03900024  RH  010%=      5-min Rain = 0
KTAS 202136Z 23009KT 39/03 A2978 RMK A01 T03920034  RH  011%=      5-min Rain = 0
KTAS 202137Z 24012KT 39/03 A2978 RMK A01 T03930034  RH  011%=      5-min Rain = 0
KTAS 202138Z 25015KT 39/02 A2978 RMK A01 T03910017  RH  010%=      5-min Rain = 0
KTAS 202139Z 25012KT 39/02 A2978 RMK A01 T03880016  RH  010%=      5-min Rain = 0
KTAS 202140Z 25011KT 39/01 A2977 RMK A01 T03870013  RH  010%=      5-min Rain = 0
KTAS 202141Z 25009KT 39/02 A2977 RMK A01 T03870020  RH  010%=      5-min Rain = 0
KTAS 202142Z 23013KT 39/03 A2977 RMK A01 T03890027  RH  011%=      5-min Rain = 0
KTAS 202143Z 22013KT 39/02 A2977 RMK A01 T03900022  RH  010%=      5-min Rain = 0
KTAS 202144Z 21015G20KT 39/02 A2977 RMK A01 T03900022  RH  010%=      5-min Rain = 0
KTAS 202145Z 21015G22KT 39/02 A2977 RMK A01 T03880017  RH  010%=      5-min Rain = 0
KTAS 202146Z 22015G21KT 39/02 A2977 RMK A01 T03880021  RH  010%=      5-min Rain = 0
KTAS 202147Z 23017G22KT 39/02 A2977 RMK A01 T03880015  RH  010%=      5-min Rain = 0
KTAS 202148Z 23011KT 39/02 A2977 RMK A01 T03870019  RH  010%=      5-min Rain = 0
KTAS 202149Z 22012G17KT 39/02 A2977 RMK A01 T03880021  RH  010%=      5-min Rain = 0
KTAS 202150Z 21012KT 39/02 A2977 RMK A01 T03880018  RH  010%=      5-min Rain = 0
KTAS 202151Z 21013KT 39/01 A2977 RMK A01 T03860010  RH  010%=      5-min Rain = 0
KTAS 202152Z 20017KT 39/01 A2977 RMK A01 T03850011  RH  010%=      5-min Rain = 0
KTAS 202153Z 20014KT 38/01 A2977 RMK A01 T03830010  RH  010%=      5-min Rain = 0
KTAS 202154Z 19014G20KT 38/02 A2977 RMK A01 T03830019  RH  010%=      5-min Rain = 0
KTAS 202155Z 21015KT 38/01 A2977 RMK A01 T03830012  RH  010%=      5-min Rain = 0
KTAS 202156Z 20015G20KT 38/01 A2977 RMK A01 T03830008  RH  010%=      5-min Rain = 0
KTAS 202157Z 19012KT 38/01 A2977 RMK A01 T03840014  RH  010%=      5-min Rain = 0
KTAS 202158Z 20012G17KT 38/01 A2977 RMK A01 T03840005  RH  009%=      5-min Rain = 0
KTAS 202159Z 18014KT 38/01 A2977 RMK A01 T03840010  RH  010%=      5-min Rain = 0
KTAS 202200Z 20010KT 38/00 A2977 RMK A01 T03830003  RH  009%=      5-min Rain = 0
KTAS 202201Z 20010KT 38/01 A2977 RMK A01 T03840012  RH  010%=      5-min Rain = 0
KTAS 202202Z 20006KT 38/00 A2977 RMK A01 T03830002  RH  009%=      5-min Rain = 0
KTAS 202203Z 21006KT 39/01 A2977 RMK A01 T03850011  RH  010%=      5-min Rain = 0
KTAS 202204Z 20012KT 39/02 A2977 RMK A01 T03860024  RH  011%=      5-min Rain = 0
KTAS 202205Z 19014G19KT 39/02 A2977 RMK A01 T03860023  RH  011%=      5-min Rain = 0
KTAS 202206Z 18014KT 39/02 A2977 RMK A01 T03860022  RH  010%=      5-min Rain = 0
KTAS 202207Z 20013KT 39/02 A2977 RMK A01 T03850023  RH  011%=      5-min Rain = 0
KTAS 202208Z 22010KT 39/01 A2977 RMK A01 T03850013  RH  010%=      5-min Rain = 0
KTAS 202209Z 22009KT 39/03 A2977 RMK A01 T03860027  RH  011%=      5-min Rain = 0
KTAS 202210Z 20008KT 39/02 A2977 RMK A01 T03860021  RH  010%=      5-min Rain = 0
KTAS 202211Z 20009KT 39/02 A2977 RMK A01 T03860019  RH  010%=      5-min Rain = 0
KTAS 202212Z 20009KT 39/03 A2977 RMK A01 T03860026  RH  011%=      5-min Rain = 0
KTAS 202213Z 21011KT 39/02 A2977 RMK A01 T03860015  RH  010%=      5-min Rain = 0
KTAS 202214Z 23014KT 39/02 A2977 RMK A01 T03860016  RH  010%=      5-min Rain = 0
KTAS 202215Z 22012KT 39/01 A2977 RMK A01 T03860009  RH  010%=      5-min Rain = 0
KTAS 202216Z 22009KT 39/03 A2977 RMK A01 T03860025  RH  011%=      5-min Rain = 0
KTAS 202217Z 23011G17KT 39/01 A2977 RMK A01 T03860010  RH  010%=      5-min Rain = 0
KTAS 202218Z 22011KT 39/00 A2977 RMK A01 T03850002  RH  009%=      5-min Rain = 0
KTAS 202219Z 21007KT 39/01 A2977 RMK A01 T03850010  RH  010%=      5-min Rain = 0
KTAS 202220Z 22005KT 39/01 A2977 RMK A01 T03850012  RH  010%=      5-min Rain = 0
KTAS 202221Z 19005KT 39/04 A2977 RMK A01 T03880035  RH  011%=      5-min Rain = 0
KTAS 202222Z 20008KT 39/03 A2977 RMK A01 T03880033  RH  011%=      5-min Rain = 0
KTAS 202223Z 18009G15KT 39/03 A2977 RMK A01 T03870032  RH  011%=      5-min Rain = 0
KTAS 202224Z 21014KT 39/03 A2977 RMK A01 T03870030  RH  011%=      5-min Rain = 0
KTAS 202225Z 23013KT 39/02 A2977 RMK A01 T03860016  RH  010%=      5-min Rain = 0
KTAS 202226Z 24008KT 39/00 A2977 RMK A01 T03850001  RH  009%=      5-min Rain = 0
KTAS 202227Z 22007KT 39/01 A2977 RMK A01 T03850014  RH  010%=      5-min Rain = 0
KTAS 202228Z 18007KT 39/04 A2977 RMK A01 T03860039  RH  012%=      5-min Rain = 0
KTAS 202229Z 18007KT 39/04 A2977 RMK A01 T03880041  RH  012%=      5-min Rain = 0
KTAS 202230Z 19010KT 39/04 A2977 RMK A01 T03880041  RH  012%=      5-min Rain = 0
KTAS 202231Z 19013KT 39/02 A2977 RMK A01 T03860024  RH  011%=      5-min Rain = 0
KTAS 202232Z 21010KT 39/02 A2977 RMK A01 T03850019  RH  010%=      5-min Rain = 0
KTAS 202233Z 22011KT 39/02 A2977 RMK A01 T03850020  RH  010%=      5-min Rain = 0
KTAS 202234Z 23015KT 39/02 A2977 RMK A01 T03850015  RH  010%=      5-min Rain = 0
KTAS 202235Z 22014KT 38/02 A2977 RMK A01 T03840015  RH  010%=      5-min Rain = 0
KTAS 202236Z 22016KT 39/02 A2977 RMK A01 T03850018  RH  010%=      5-min Rain = 0
KTAS 202237Z 23015KT 38/01 A2977 RMK A01 T03840014  RH  010%=      5-min Rain = 0
KTAS 202238Z 22011KT 38/01 A2977 RMK A01 T03830009  RH  010%=      5-min Rain = 0
KTAS 202239Z 22009KT 38/00 A2977 RMK A01 T03830001  RH  009%=      5-min Rain = 0
KTAS 202240Z 23008KT 38/02 A2976 RMK A01 T03830020  RH  011%=      5-min Rain = 0
KTAS 202241Z 23009KT 38/02 A2977 RMK A01 T03840015  RH  010%=      5-min Rain = 0
KTAS 202242Z 20009KT 38/02 A2977 RMK A01 T03840020  RH  010%=      5-min Rain = 0
KTAS 202243Z 19009KT 38/02 A2976 RMK A01 T03840022  RH  011%=      5-min Rain = 0
KTAS 202244Z 21013KT 38/02 A2976 RMK A01 T03830023  RH  011%=      5-min Rain = 0
KTAS 202245Z 21012KT 38/01 A2976 RMK A01 T03820011  RH  010%=      5-min Rain = 0
KTAS 202246Z 22011KT 38/01 A2976 RMK A01 T03820014  RH  010%=      5-min Rain = 0
KTAS 202247Z 22012KT 38/01 A2976 RMK A01 T03830012  RH  010%=      5-min Rain = 0
KTAS 202248Z 21009KT 38/02 A2976 RMK A01 T03820018  RH  010%=      5-min Rain = 0
KTAS 202249Z 20009KT 38/02 A2976 RMK A01 T03820020  RH  011%=      5-min Rain = 0
KTAS 202250Z 20008KT 38/02 A2976 RMK A01 T03810019  RH  010%=      5-min Rain = 0
KTAS 202251Z 22009KT 38/02 A2976 RMK A01 T03820017  RH  010%=      5-min Rain = 0
KTAS 202252Z 24011KT 38/01 A2976 RMK A01 T03820014  RH  010%=      5-min Rain = 0
KTAS 202253Z 23009KT 38/02 A2976 RMK A01 T03820019  RH  010%=      5-min Rain = 0
KTAS 202254Z 23011KT 38/01 A2976 RMK A01 T03820009  RH  010%=      5-min Rain = 0
KTAS 202255Z 23010KT 38/01 A2976 RMK A01 T03820009  RH  010%=      5-min Rain = 0
KTAS 202256Z 21010KT 38/01 A2976 RMK A01 T03820014  RH  010%=      5-min Rain = 0
KTAS 202257Z 20009KT 38/00 A2976 RMK A01 T03810004  RH  009%=      5-min Rain = 0
KTAS 202258Z 22007G12KT 38/03 A2976 RMK A01 T03820025  RH  011%=      5-min Rain = 0
KTAS 202259Z 23013KT 38/02 A2976 RMK A01 T03830023  RH  011%=      5-min Rain = 0
KTAS 202300Z 22010KT 38/01 A2976 RMK A01 T03830009  RH  010%=      5-min Rain = 0
KTAS 202301Z 21011KT 38/02 A2976 RMK A01 T03830023  RH  011%=      5-min Rain = 0
KTAS 202302Z 20012KT 38/02 A2976 RMK A01 T03820023  RH  011%=      5-min Rain = 0
KTAS 202303Z 19014KT 38/02 A2976 RMK A01 T03810019  RH  010%=      5-min Rain = 0
KTAS 202304Z 20012KT 38/02 A2976 RMK A01 T03800017  RH  010%=      5-min Rain = 0
KTAS 202305Z 20009KT 38/03 A2976 RMK A01 T03780026  RH  011%=      5-min Rain = 0
KTAS 202306Z 19010KT 38/03 A2976 RMK A01 T03790030  RH  012%=      5-min Rain = 0
KTAS 202307Z 19011G16KT 38/03 A2976 RMK A01 T03780031  RH  012%=      5-min Rain = 0
KTAS 202308Z 20012KT 38/02 A2976 RMK A01 T03770022  RH  011%=      5-min Rain = 0
KTAS 202309Z 21011KT 38/03 A2976 RMK A01 T03780027  RH  011%=      5-min Rain = 0
KTAS 202310Z 21014KT 38/02 A2976 RMK A01 T03780016  RH  011%=      5-min Rain = 0
KTAS 202311Z 22013KT 38/01 A2976 RMK A01 T03780014  RH  010%=      5-min Rain = 0
KTAS 202312Z 22014KT 38/01 A2976 RMK A01 T03790012  RH  010%=      5-min Rain = 0
KTAS 202313Z 22014KT 38/02 A2976 RMK A01 T03790015  RH  010%=      5-min Rain = 0
KTAS 202314Z 22015KT 38/01 A2976 RMK A01 T03800008  RH  010%=      5-min Rain = 0
KTAS 202315Z 21011KT 38/01 A2976 RMK A01 T03790006  RH  010%=      5-min Rain = 0
KTAS 202316Z 20011KT 38/01 A2976 RMK A01 T03780014  RH  010%=      5-min Rain = 0
KTAS 202317Z 21007KT 38/01 A2975 RMK A01 T03780010  RH  010%=      5-min Rain = 0
KTAS 202318Z 21008KT 38/01 A2975 RMK A01 T03780013  RH  010%=      5-min Rain = 0
KTAS 202319Z 22008KT 38/01 A2975 RMK A01 T03780012  RH  010%=      5-min Rain = 0
KTAS 202320Z 20010KT 38/01 A2975 RMK A01 T03790010  RH  010%=      5-min Rain = 0
KTAS 202321Z 19012KT 38/01 A2975 RMK A01 T03780014  RH  010%=      5-min Rain = 0
KTAS 202322Z 18011KT 38/02 A2975 RMK A01 T03780015  RH  010%=      5-min Rain = 0
KTAS 202323Z 19011KT 38/02 A2975 RMK A01 T03770024  RH  011%=      5-min Rain = 0
KTAS 202324Z 18011G16KT 38/04 A2975 RMK A01 T03760036  RH  012%=      5-min Rain = 0
KTAS 202325Z 19013KT 38/03 A2975 RMK A01 T03760025  RH  011%=      5-min Rain = 0
KTAS 202326Z 20012KT 38/02 A2975 RMK A01 T03750022  RH  011%=      5-min Rain = 0
KTAS 202327Z 22016KT 38/01 A2975 RMK A01 T03750011  RH  010%=      5-min Rain = 0
KTAS 202328Z 21014KT 38/01 A2975 RMK A01 T03750010  RH  010%=      5-min Rain = 0
KTAS 202329Z 21013KT 38/01 A2975 RMK A01 T03750013  RH  010%=      5-min Rain = 0
KTAS 202330Z 21013KT 38/01 A2975 RMK A01 T03750008  RH  010%=      5-min Rain = 0
KTAS 202331Z 23011KT 38/01 A2975 RMK A01 T03750013  RH  010%=      5-min Rain = 0
KTAS 202332Z 21014KT 38/01 A2975 RMK A01 T03760011  RH  010%=      5-min Rain = 0
KTAS 202333Z 21013KT 38/01 A2975 RMK A01 T03760008  RH  010%=      5-min Rain = 0
KTAS 202334Z 22013KT 38/02 A2975 RMK A01 T03750017  RH  011%=      5-min Rain = 0
KTAS 202335Z 22016KT 38/01 A2975 RMK A01 T03760009  RH  010%=      5-min Rain = 0
KTAS 202336Z 23012KT 38/01 A2975 RMK A01 T03760005  RH  010%=      5-min Rain = 0
KTAS 202337Z 23012KT 38/01 A2975 RMK A01 T03760005  RH  010%=      5-min Rain = 0
KTAS 202338Z 22009KT 38/01 A2975 RMK A01 T03760005  RH  010%=      5-min Rain = 0
KTAS 202339Z 22007KT 38/01 A2975 RMK A01 T03760011  RH  010%=      5-min Rain = 0
KTAS 202340Z 24008KT 38/02 A2975 RMK A01 T03770019  RH  011%=      5-min Rain = 0
KTAS 202341Z 22010KT 38/01 A2975 RMK A01 T03760012  RH  010%=      5-min Rain = 0
KTAS 202342Z 22011KT 38/01 A2975 RMK A01 T03760014  RH  010%=      5-min Rain = 0
KTAS 202343Z 19010KT 38/02 A2975 RMK A01 T03760021  RH  011%=      5-min Rain = 0
KTAS 202344Z 19011KT 38/02 A2975 RMK A01 T03750017  RH  011%=      5-min Rain = 0
KTAS 202345Z 20011KT 37/02 A2975 RMK A01 T03740021  RH  011%=      5-min Rain = 0
KTAS 202346Z 20012KT 37/02 A2975 RMK A01 T03730017  RH  011%=      5-min Rain = 0
KTAS 202347Z 21014KT 37/01 A2975 RMK A01 T03720009  RH  010%=      5-min Rain = 0
KTAS 202348Z 22011KT 37/02 A2975 RMK A01 T03730017  RH  011%=      5-min Rain = 0
KTAS 202349Z 21008KT 37/02 A2975 RMK A01 T03730020  RH  011%=      5-min Rain = 0
KTAS 202350Z 20010KT 37/02 A2975 RMK A01 T03720024  RH  011%=      5-min Rain = 0
KTAS 202351Z 20012KT 37/02 A2975 RMK A01 T03720018  RH  011%=      5-min Rain = 0
KTAS 202352Z 20012KT 37/01 A2975 RMK A01 T03720014  RH  011%=      5-min Rain = 0
KTAS 202353Z 19010KT 37/01 A2975 RMK A01 T03710012  RH  011%=      5-min Rain = 0
KTAS 202354Z 21011KT 37/02 A2975 RMK A01 T03700020  RH  011%=      5-min Rain = 0
KTAS 202355Z 21014KT 37/00 A2975 RMK A01 T03700004  RH  010%=      5-min Rain = 0
KTAS 202356Z 20012KT 37/00 A2975 RMK A01 T03710004  RH  010%=      5-min Rain = 0
KTAS 202357Z 20011KT 37/01 A2975 RMK A01 T03700012  RH  011%=      5-min Rain = 0
KTAS 202358Z 20010KT 37/02 A2975 RMK A01 T03700015  RH  011%=      5-min Rain = 0
KTAS 202359Z 21011KT 37/01 A2975 RMK A01 T03690013  RH  011%=      5-min Rain = 0
KTAS 210000Z 20013KT 37/01 A2975 RMK A01 T03700006  RH  010%=      5-min Rain = 0
KTAS 210001Z 20011KT 37/01 A2975 RMK A01 T03700011  RH  011%=      5-min Rain = 0
KTAS 210002Z 20012KT 37/01 A2975 RMK A01 T03700013  RH  011%=      5-min Rain = 0
KTAS 210003Z 21011KT 37/02 A2975 RMK A01 T03700015  RH  011%=      5-min Rain = 0
KTAS 210004Z 21012G17KT 37/01 A2975 RMK A01 T03690014  RH  011%=      5-min Rain = 0
KTAS 210005Z 21012KT 37/01 A2975 RMK A01 T03690007  RH  010%=      5-min Rain = 0
KTAS 210006Z 22016KT 37/00 A2975 RMK A01 T03700001  RH  010%=      5-min Rain = 0
KTAS 210007Z 21015KT 37/M00 A2975 RMK A01 T03711002  RH  010%=      5-min Rain = 0
KTAS 210008Z 21013KT 37/M00 A2975 RMK A01 T03711001  RH  010%=      5-min Rain = 0
KTAS 210009Z 21013KT 37/00 A2975 RMK A01 T03700002  RH  010%=      5-min Rain = 0
KTAS 210010Z 22012KT 37/00 A2975 RMK A01 T03700004  RH  010%=      5-min Rain = 0
KTAS 210011Z 21012KT 37/00 A2975 RMK A01 T03690004  RH  010%=      5-min Rain = 0
KTAS 210012Z 21012KT 37/M00 A2975 RMK A01 T03691001  RH  010%=      5-min Rain = 0
KTAS 210013Z 20010KT 37/01 A2975 RMK A01 T03700006  RH  010%=      5-min Rain = 0
KTAS 210014Z 20010KT 37/01 A2975 RMK A01 T03690006  RH  010%=      5-min Rain = 0
KTAS 210015Z 20010KT 37/01 A2975 RMK A01 T03680009  RH  011%=      5-min Rain = 0
KTAS 210016Z 20010KT 37/00 A2975 RMK A01 T03680002  RH  010%=      5-min Rain = 0
KTAS 210017Z 20008KT 37/02 A2975 RMK A01 T03680015  RH  011%=      5-min Rain = 0
KTAS 210018Z 21011KT 37/00 A2975 RMK A01 T03670003  RH  010%=      5-min Rain = 0
KTAS 210019Z 21011KT 37/01 A2975 RMK A01 T03670008  RH  010%=      5-min Rain = 0
KTAS 210020Z 21014KT 37/00 A2974 RMK A01 T03670002  RH  010%=      5-min Rain = 0
KTAS 210021Z 21014KT 37/M00 A2974 RMK A01 T03681003  RH  010%=      5-min Rain = 0
KTAS 210022Z 21011KT 37/01 A2975 RMK A01 T03680005  RH  010%=      5-min Rain = 0
KTAS 210023Z 20009KT 37/01 A2975 RMK A01 T03660011  RH  011%=      5-min Rain = 0
KTAS 210024Z 20008KT 37/02 A2975 RMK A01 T03650019  RH  011%=      5-min Rain = 0
KTAS 210025Z 20008KT 36/02 A2975 RMK A01 T03640020  RH  012%=      5-min Rain = 0
KTAS 210026Z 20009KT 36/02 A2975 RMK A01 T03630016  RH  011%=      5-min Rain = 0
KTAS 210027Z 20009KT 36/02 A2975 RMK A01 T03630019  RH  012%=      5-min Rain = 0
KTAS 210028Z 20010KT 36/01 A2975 RMK A01 T03630008  RH  011%=      5-min Rain = 0
KTAS 210029Z 20008KT 36/01 A2975 RMK A01 T03630014  RH  011%=      5-min Rain = 0
KTAS 210030Z 19007KT 36/03 A2975 RMK A01 T03630026  RH  012%=      5-min Rain = 0
KTAS 210031Z 20006KT 36/04 A2975 RMK A01 T03610035  RH  013%=      5-min Rain = 0
KTAS 210032Z 20008KT 36/03 A2975 RMK A01 T03600031  RH  013%=      5-min Rain = 0
KTAS 210033Z 21009KT 36/02 A2975 RMK A01 T03600020  RH  012%=      5-min Rain = 0
KTAS 210034Z 21010KT 36/01 A2975 RMK A01 T03600014  RH  011%=      5-min Rain = 0
KTAS 210035Z 20009KT 36/01 A2975 RMK A01 T03610014  RH  011%=      5-min Rain = 0
KTAS 210036Z 20009KT 36/02 A2975 RMK A01 T03610015  RH  011%=      5-min Rain = 0
KTAS 210037Z 21011KT 36/01 A2975 RMK A01 T03600010  RH  011%=      5-min Rain = 0
KTAS 210038Z 20010KT 36/01 A2975 RMK A01 T03610010  RH  011%=      5-min Rain = 0
KTAS 210039Z 21012KT 36/01 A2975 RMK A01 T03610005  RH  011%=      5-min Rain = 0
KTAS 210040Z 21010KT 36/01 A2975 RMK A01 T03610008  RH  011%=      5-min Rain = 0
KTAS 210041Z 21008KT 36/02 A2975 RMK A01 T03600015  RH  011%=      5-min Rain = 0
KTAS 210042Z 20009KT 36/02 A2975 RMK A01 T03590017  RH  012%=      5-min Rain = 0
KTAS 210043Z 21009KT 36/02 A2975 RMK A01 T03570020  RH  012%=      5-min Rain = 0
KTAS 210044Z 21008KT 36/02 A2975 RMK A01 T03570015  RH  012%=      5-min Rain = 0
KTAS 210045Z 20010KT 36/02 A2975 RMK A01 T03570016  RH  012%=      5-min Rain = 0
KTAS 210046Z 20010KT 36/01 A2974 RMK A01 T03570014  RH  012%=      5-min Rain = 0
KTAS 210047Z 19008KT 36/02 A2975 RMK A01 T03550021  RH  012%=      5-min Rain = 0
KTAS 210048Z 19008KT 35/03 A2975 RMK A01 T03540028  RH  013%=      5-min Rain = 0
KTAS 210049Z 19008KT 35/03 A2975 RMK A01 T03520034  RH  014%=      5-min Rain = 0
KTAS 210050Z 19009KT 35/03 A2974 RMK A01 T03500033  RH  014%=      5-min Rain = 0
KTAS 210051Z 19009KT 35/03 A2974 RMK A01 T03490031  RH  014%=      5-min Rain = 0
KTAS 210052Z 19010KT 35/03 A2974 RMK A01 T03490025  RH  013%=      5-min Rain = 0
KTAS 210053Z 19010KT 35/02 A2974 RMK A01 T03480019  RH  013%=      5-min Rain = 0
KTAS 210054Z 20010KT 35/01 A2974 RMK A01 T03490012  RH  012%=      5-min Rain = 0
KTAS 210055Z 20008KT 35/02 A2974 RMK A01 T03490017  RH  012%=      5-min Rain = 0
KTAS 210056Z 19008KT 35/03 A2974 RMK A01 T03480025  RH  013%=      5-min Rain = 0
KTAS 210057Z 19008KT 35/03 A2974 RMK A01 T03460031  RH  014%=      5-min Rain = 0
KTAS 210058Z 19007KT 34/04 A2974 RMK A01 T03440038  RH  015%=      5-min Rain = 0
KTAS 210059Z 19007KT 34/04 A2974 RMK A01 T03430039  RH  015%=      5-min Rain = 0
KTAS 210100Z 18008KT 34/03 A2974 RMK A01 T03430030  RH  014%=      5-min Rain = 0
KTAS 210101Z 18008KT 34/03 A2974 RMK A01 T03430028  RH  014%=      5-min Rain = 0
KTAS 210102Z 19007KT 34/04 A2974 RMK A01 T03430037  RH  015%=      5-min Rain = 0
KTAS 210103Z 19008KT 34/04 A2974 RMK A01 T03410039  RH  015%=      5-min Rain = 0
KTAS 210104Z 19007KT 34/04 A2974 RMK A01 T03400036  RH  015%=      5-min Rain = 0
KTAS 210105Z 19008KT 34/04 A2974 RMK A01 T03380038  RH  015%=      5-min Rain = 0
KTAS 210106Z 19007KT 34/04 A2974 RMK A01 T03370039  RH  015%=      5-min Rain = 0
KTAS 210107Z 20007KT 34/04 A2974 RMK A01 T03360038  RH  016%=      5-min Rain = 0
KTAS 210108Z 19007KT 34/04 A2974 RMK A01 T03350038  RH  016%=      5-min Rain = 0
KTAS 210109Z 19008KT 34/04 A2974 RMK A01 T03350042  RH  016%=      5-min Rain = 0
KTAS 210110Z 19008KT 33/04 A2974 RMK A01 T03340040  RH  016%=      5-min Rain = 0
KTAS 210111Z 19007KT 33/04 A2974 RMK A01 T03330037  RH  016%=      5-min Rain = 0
KTAS 210112Z 19007KT 33/04 A2974 RMK A01 T03330041  RH  016%=      5-min Rain = 0
KTAS 210113Z 19007KT 33/04 A2974 RMK A01 T03310043  RH  016%=      5-min Rain = 0
KTAS 210114Z 19008KT 33/05 A2974 RMK A01 T03300045  RH  017%=      5-min Rain = 0
KTAS 210115Z 19008KT 33/05 A2974 RMK A01 T03290045  RH  017%=      5-min Rain = 0
KTAS 210116Z 19008KT 33/04 A2974 RMK A01 T03280043  RH  017%=      5-min Rain = 0
KTAS 210117Z 20007KT 33/05 A2974 RMK A01 T03270045  RH  017%=      5-min Rain = 0
KTAS 210118Z 20007KT 33/04 A2974 RMK A01 T03250040  RH  017%=      5-min Rain = 0
KTAS 210119Z 20008KT 33/04 A2974 RMK A01 T03250036  RH  016%=      5-min Rain = 0
KTAS 210120Z 20008KT 33/03 A2974 RMK A01 T03250034  RH  016%=      5-min Rain = 0
KTAS 210121Z 19007KT 32/03 A2974 RMK A01 T03240034  RH  016%=      5-min Rain = 0
KTAS 210122Z 19007KT 32/04 A2974 RMK A01 T03230038  RH  017%=      5-min Rain = 0
KTAS 210123Z 19007KT 32/04 A2974 RMK A01 T03220037  RH  017%=      5-min Rain = 0
KTAS 210124Z 19008KT 32/04 A2974 RMK A01 T03220035  RH  016%=      5-min Rain = 0
KTAS 210125Z 20007KT 32/04 A2974 RMK A01 T03200041  RH  017%=      5-min Rain = 0
KTAS 210126Z 20007KT 32/04 A2974 RMK A01 T03180043  RH  018%=      5-min Rain = 0
KTAS 210127Z 20007KT 32/04 A2974 RMK A01 T03160042  RH  018%=      5-min Rain = 0
KTAS 210128Z 20007KT 31/04 A2974 RMK A01 T03140044  RH  018%=      5-min Rain = 0
KTAS 210129Z 20007KT 31/04 A2974 RMK A01 T03130042  RH  018%=      5-min Rain = 0
KTAS 210130Z 20007KT 31/04 A2975 RMK A01 T03130042  RH  018%=      5-min Rain = 0
KTAS 210131Z 20007KT 31/04 A2975 RMK A01 T03120041  RH  018%=      5-min Rain = 0
KTAS 210132Z 20007KT 31/04 A2975 RMK A01 T03120040  RH  018%=      5-min Rain = 0
KTAS 210133Z 20007KT 31/04 A2975 RMK A01 T03120039  RH  018%=      5-min Rain = 0
KTAS 210134Z 20007KT 31/04 A2975 RMK A01 T03110042  RH  018%=      5-min Rain = 0
KTAS 210135Z 20007KT 31/04 A2975 RMK A01 T03090043  RH  019%=      5-min Rain = 0
KTAS 210136Z 20007KT 31/04 A2975 RMK A01 T03080043  RH  019%=      5-min Rain = 0
KTAS 210137Z 20007KT 31/04 A2975 RMK A01 T03070042  RH  019%=      5-min Rain = 0
KTAS 210138Z 20007KT 31/04 A2975 RMK A01 T03060043  RH  019%=      5-min Rain = 0
KTAS 210139Z 20006KT 31/04 A2975 RMK A01 T03050044  RH  019%=      5-min Rain = 0
KTAS 210140Z 20006KT 30/04 A2975 RMK A01 T03030044  RH  019%=      5-min Rain = 0
KTAS 210141Z 20006KT 30/04 A2975 RMK A01 T03030043  RH  019%=      5-min Rain = 0
KTAS 210142Z 20007KT 30/04 A2975 RMK A01 T03020044  RH  020%=      5-min Rain = 0
KTAS 210143Z 20006KT 30/04 A2975 RMK A01 T03010044  RH  020%=      5-min Rain = 0
KTAS 210144Z 20006KT 30/04 A2975 RMK A01 T03000044  RH  020%=      5-min Rain = 0
KTAS 210145Z 20007KT 30/05 A2975 RMK A01 T02990045  RH  020%=      5-min Rain = 0
KTAS 210146Z 20006KT 30/05 A2975 RMK A01 T02980047  RH  020%=      5-min Rain = 0
KTAS 210147Z 20007KT 30/05 A2975 RMK A01 T02960045  RH  020%=      5-min Rain = 0
KTAS 210148Z 20007KT 30/04 A2975 RMK A01 T02950043  RH  020%=      5-min Rain = 0
KTAS 210149Z 20007KT 30/04 A2975 RMK A01 T02950039  RH  020%=      5-min Rain = 0
KTAS 210150Z 20007KT 30/04 A2975 RMK A01 T02960039  RH  019%=      5-min Rain = 0
KTAS 210151Z 20007KT 30/04 A2975 RMK A01 T02950038  RH  019%=      5-min Rain = 0
KTAS 210152Z 20007KT 30/04 A2975 RMK A01 T02950039  RH  020%=      5-min Rain = 0
KTAS 210153Z 20007KT 29/04 A2975 RMK A01 T02940040  RH  020%=      5-min Rain = 0
KTAS 210154Z 20007KT 29/04 A2975 RMK A01 T02930040  RH  020%=      5-min Rain = 0
KTAS 210155Z 20007KT 29/04 A2975 RMK A01 T02920039  RH  020%=      5-min Rain = 0
KTAS 210156Z 20007KT 29/04 A2975 RMK A01 T02920040  RH  020%=      5-min Rain = 0
KTAS 210157Z 20008KT 29/04 A2975 RMK A01 T02910039  RH  020%=      5-min Rain = 0
KTAS 210158Z 20008KT 29/04 A2975 RMK A01 T02900038  RH  020%=      5-min Rain = 0
KTAS 210159Z 20008KT 29/04 A2975 RMK A01 T02900037  RH  020%=      5-min Rain = 0
KTAS 210200Z 20008KT 29/04 A2975 RMK A01 T02890039  RH  020%=      5-min Rain = 0
KTAS 210201Z 20008KT 29/04 A2975 RMK A01 T02880038  RH  020%=      5-min Rain = 0
KTAS 210202Z 21008KT 29/04 A2975 RMK A01 T02870036  RH  020%=      5-min Rain = 0
KTAS 210203Z 21007KT 29/03 A2975 RMK A01 T02880033  RH  020%=      5-min Rain = 0
KTAS 210204Z 20007KT 29/04 A2975 RMK A01 T02880035  RH  020%=      5-min Rain = 0
KTAS 210205Z 20008KT 29/03 A2975 RMK A01 T02870033  RH  020%=      5-min Rain = 0
KTAS 210206Z 20007KT 29/03 A2975 RMK A01 T02870032  RH  019%=      5-min Rain = 0
KTAS 210207Z 20008KT 29/03 A2975 RMK A01 T02870033  RH  020%=      5-min Rain = 0
KTAS 210208Z 20007KT 29/03 A2975 RMK A01 T02860032  RH  020%=      5-min Rain = 0
KTAS 210209Z 20007KT 29/03 A2975 RMK A01 T02860032  RH  020%=      5-min Rain = 0
KTAS 210210Z 21007KT 29/04 A2975 RMK A01 T02850035  RH  020%=      5-min Rain = 0
KTAS 210211Z 20007KT 28/04 A2975 RMK A01 T02840038  RH  021%=      5-min Rain = 0
KTAS 210212Z 20007KT 28/04 A2975 RMK A01 T02820038  RH  021%=      5-min Rain = 0
KTAS 210213Z 21007KT 28/03 A2975 RMK A01 T02830033  RH  020%=      5-min Rain = 0
KTAS 210214Z 21007KT 28/03 A2975 RMK A01 T02840031  RH  020%=      5-min Rain = 0
KTAS 210215Z 21008KT 29/03 A2975 RMK A01 T02850030  RH  019%=      5-min Rain = 0
KTAS 210216Z 21008KT 29/03 A2975 RMK A01 T02860027  RH  019%=      5-min Rain = 0
KTAS 210217Z 21008KT 29/03 A2975 RMK A01 T02870028  RH  019%=      5-min Rain = 0
KTAS 210218Z 21008KT 29/03 A2975 RMK A01 T02860028  RH  019%=      5-min Rain = 0
KTAS 210219Z 21009KT 29/03 A2975 RMK A01 T02860027  RH  019%=      5-min Rain = 0
KTAS 210220Z 21009KT 29/03 A2975 RMK A01 T02870025  RH  019%=      5-min Rain = 0
KTAS 210221Z 21009KT 29/02 A2975 RMK A01 T02870024  RH  019%=      5-min Rain = 0
KTAS 210222Z 22009KT 29/02 A2975 RMK A01 T02880024  RH  018%=      5-min Rain = 0
KTAS 210223Z 21009KT 29/02 A2975 RMK A01 T02890023  RH  018%=      5-min Rain = 0
KTAS 210224Z 21009KT 29/02 A2975 RMK A01 T02900023  RH  018%=      5-min Rain = 0
KTAS 210225Z 21010KT 29/02 A2975 RMK A01 T02900023  RH  018%=      5-min Rain = 0
KTAS 210226Z 21009KT 29/02 A2975 RMK A01 T02910023  RH  018%=      5-min Rain = 0
KTAS 210227Z 22009KT 29/02 A2976 RMK A01 T02910023  RH  018%=      5-min Rain = 0
KTAS 210228Z 21009KT 29/02 A2976 RMK A01 T02900024  RH  018%=      5-min Rain = 0
KTAS 210229Z 21009KT 29/03 A2976 RMK A01 T02900025  RH  018%=      5-min Rain = 0
KTAS 210230Z 22009KT 29/02 A2976 RMK A01 T02890023  RH  018%=      5-min Rain = 0
KTAS 210231Z 21009KT 29/02 A2976 RMK A01 T02900024  RH  018%=      5-min Rain = 0
KTAS 210232Z 21009KT 29/02 A2976 RMK A01 T02890023  RH  018%=      5-min Rain = 0
KTAS 210233Z 22009KT 29/02 A2976 RMK A01 T02890023  RH  018%=      5-min Rain = 0
KTAS 210234Z 22009KT 29/02 A2976 RMK A01 T02890023  RH  018%=      5-min Rain = 0
KTAS 210235Z 22009KT 29/03 A2976 RMK A01 T02880025  RH  018%=      5-min Rain = 0
KTAS 210236Z 22009KT 29/02 A2976 RMK A01 T02870024  RH  018%=      5-min Rain = 0
KTAS 210237Z 22009KT 29/02 A2976 RMK A01 T02870024  RH  019%=      5-min Rain = 0
KTAS 210238Z 21009KT 29/03 A2976 RMK A01 T02860025  RH  019%=      5-min Rain = 0
KTAS 210239Z 21010KT 29/02 A2976 RMK A01 T02850024  RH  019%=      5-min Rain = 0
KTAS 210240Z 21009KT 29/02 A2976 RMK A01 T02850022  RH  018%=      5-min Rain = 0
KTAS 210241Z 22010KT 29/02 A2976 RMK A01 T02860021  RH  018%=      5-min Rain = 0
KTAS 210242Z 22010KT 29/02 A2976 RMK A01 T02870022  RH  018%=      5-min Rain = 0
KTAS 210243Z 22010KT 29/02 A2976 RMK A01 T02870021  RH  018%=      5-min Rain = 0
KTAS 210244Z 22009KT 29/02 A2976 RMK A01 T02860023  RH  018%=      5-min Rain = 0
KTAS 210245Z 22009KT 29/02 A2976 RMK A01 T02850022  RH  018%=      5-min Rain = 0
KTAS 210246Z 22009KT 29/02 A2976 RMK A01 T02850021  RH  018%=      5-min Rain = 0
KTAS 210247Z 22009KT 29/02 A2976 RMK A01 T02850021  RH  018%=      5-min Rain = 0
KTAS 210248Z 22010KT 29/02 A2976 RMK A01 T02850021  RH  018%=      5-min Rain = 0
KTAS 210249Z 22009KT 29/02 A2976 RMK A01 T02860020  RH  018%=      5-min Rain = 0
KTAS 210250Z 22009KT 29/02 A2976 RMK A01 T02850022  RH  018%=      5-min Rain = 0
KTAS 210251Z 22010KT 29/02 A2976 RMK A01 T02850021  RH  018%=      5-min Rain = 0
KTAS 210252Z 22009KT 29/02 A2976 RMK A01 T02850021  RH  018%=      5-min Rain = 0
KTAS 210253Z 22010KT 29/02 A2976 RMK A01 T02850021  RH  018%=      5-min Rain = 0
KTAS 210254Z 22010KT 28/02 A2976 RMK A01 T02840021  RH  018%=      5-min Rain = 0
KTAS 210255Z 23009KT 29/02 A2976 RMK A01 T02850018  RH  018%=      5-min Rain = 0
KTAS 210256Z 22009KT 29/02 A2976 RMK A01 T02860020  RH  018%=      5-min Rain = 0
KTAS 210257Z 22009KT 29/02 A2976 RMK A01 T02860020  RH  018%=      5-min Rain = 0
KTAS 210258Z 22010KT 29/02 A2976 RMK A01 T02860020  RH  018%=      5-min Rain = 0
KTAS 210259Z 22010KT 29/02 A2976 RMK A01 T02860020  RH  018%=      5-min Rain = 0
KTAS 210300Z 23009KT 29/02 A2976 RMK A01 T02850020  RH  018%=      5-min Rain = 0
KTAS 210301Z 23009KT 28/02 A2976 RMK A01 T02830021  RH  018%=      5-min Rain = 0
KTAS 210302Z 22009KT 28/02 A2976 RMK A01 T02820021  RH  019%=      5-min Rain = 0
KTAS 210303Z 22009KT 28/02 A2977 RMK A01 T02810021  RH  019%=      5-min Rain = 0
KTAS 210304Z 22010KT 28/02 A2977 RMK A01 T02800021  RH  019%=      5-min Rain = 0
KTAS 210305Z 23010KT 28/02 A2977 RMK A01 T02800022  RH  019%=      5-min Rain = 0
KTAS 210306Z 22010KT 28/02 A2977 RMK A01 T02780022  RH  019%=      5-min Rain = 0
KTAS 210307Z 23009KT 28/02 A2977 RMK A01 T02770023  RH  019%=      5-min Rain = 0
KTAS 210308Z 23009KT 28/02 A2977 RMK A01 T02760023  RH  020%=      5-min Rain = 0
KTAS 210309Z 23009KT 28/02 A2977 RMK A01 T02750022  RH  020%=      5-min Rain = 0
KTAS 210310Z 23009KT 27/02 A2977 RMK A01 T02740022  RH  020%=      5-min Rain = 0
KTAS 210311Z 23009KT 27/02 A2977 RMK A01 T02740021  RH  020%=      5-min Rain = 0
KTAS 210312Z 23010KT 27/02 A2977 RMK A01 T02740019  RH  019%=      5-min Rain = 0
KTAS 210313Z 23010KT 27/02 A2977 RMK A01 T02740017  RH  019%=      5-min Rain = 0
KTAS 210314Z 23009KT 27/02 A2977 RMK A01 T02740018  RH  019%=      5-min Rain = 0
KTAS 210315Z 23009KT 27/02 A2977 RMK A01 T02740017  RH  019%=      5-min Rain = 0
KTAS 210316Z 23010KT 27/02 A2977 RMK A01 T02730016  RH  019%=      5-min Rain = 0
KTAS 210317Z 23010KT 27/02 A2977 RMK A01 T02740015  RH  019%=      5-min Rain = 0
KTAS 210318Z 23010KT 27/02 A2977 RMK A01 T02730015  RH  019%=      5-min Rain = 0
KTAS 210319Z 23010KT 27/01 A2977 RMK A01 T02730014  RH  019%=      5-min Rain = 0
KTAS 210320Z 23009KT 27/02 A2977 RMK A01 T02730016  RH  019%=      5-min Rain = 0
KTAS 210321Z 23010KT 27/02 A2977 RMK A01 T02710016  RH  019%=      5-min Rain = 0
KTAS 210322Z 22010KT 27/02 A2977 RMK A01 T02710016  RH  019%=      5-min Rain = 0
KTAS 210323Z 23009KT 27/02 A2977 RMK A01 T02690017  RH  019%=      5-min Rain = 0
KTAS 210324Z 23009KT 27/02 A2977 RMK A01 T02680017  RH  020%=      5-min Rain = 0
KTAS 210325Z 22009KT 27/02 A2977 RMK A01 T02680017  RH  020%=      5-min Rain = 0
KTAS 210326Z 22009KT 27/02 A2977 RMK A01 T02670017  RH  020%=      5-min Rain = 0
KTAS 210327Z 22009KT 27/02 A2977 RMK A01 T02660017  RH  020%=      5-min Rain = 0
KTAS 210328Z 23009KT 27/02 A2977 RMK A01 T02660017  RH  020%=      5-min Rain = 0
KTAS 210329Z 23009KT 27/02 A2978 RMK A01 T02650019  RH  020%=      5-min Rain = 0
KTAS 210330Z 23009KT 26/02 A2978 RMK A01 T02640017  RH  020%=      5-min Rain = 0
KTAS 210331Z 23009KT 26/02 A2978 RMK A01 T02640018  RH  020%=      5-min Rain = 0
KTAS 210332Z 23009KT 26/02 A2978 RMK A01 T02630018  RH  020%=      5-min Rain = 0
KTAS 210333Z 23009KT 26/02 A2978 RMK A01 T02620018  RH  020%=      5-min Rain = 0
KTAS 210334Z 23009KT 26/02 A2978 RMK A01 T02610018  RH  021%=      5-min Rain = 0
KTAS 210335Z 23009KT 26/02 A2978 RMK A01 T02600018  RH  021%=      5-min Rain = 0
KTAS 210336Z 23009KT 26/02 A2978 RMK A01 T02590018  RH  021%=      5-min Rain = 0
KTAS 210337Z 23009KT 26/02 A2978 RMK A01 T02590018  RH  021%=      5-min Rain = 0
KTAS 210338Z 23009KT 26/02 A2978 RMK A01 T02580018  RH  021%=      5-min Rain = 0
KTAS 210339Z 23009KT 26/02 A2978 RMK A01 T02580018  RH  021%=      5-min Rain = 0
KTAS 210340Z 23009KT 26/02 A2978 RMK A01 T02580018  RH  021%=      5-min Rain = 0
KTAS 210341Z 23009KT 26/02 A2978 RMK A01 T02580017  RH  021%=      5-min Rain = 0
KTAS 210342Z 22009KT 26/02 A2978 RMK A01 T02570018  RH  021%=      5-min Rain = 0
KTAS 210343Z 22009KT 26/02 A2978 RMK A01 T02570017  RH  021%=      5-min Rain = 0
KTAS 210344Z 22009KT 26/02 A2978 RMK A01 T02560018  RH  021%=      5-min Rain = 0
KTAS 210345Z 22009KT 26/02 A2978 RMK A01 T02560017  RH  021%=      5-min Rain = 0
KTAS 210346Z 22009KT 26/02 A2978 RMK A01 T02570015  RH  021%=      5-min Rain = 0
KTAS 210347Z 22009KT 26/02 A2978 RMK A01 T02570015  RH  021%=      5-min Rain = 0
KTAS 210348Z 22009KT 26/02 A2978 RMK A01 T02580015  RH  020%=      5-min Rain = 0
KTAS 210349Z 22009KT 26/02 A2978 RMK A01 T02580015  RH  021%=      5-min Rain = 0
KTAS 210350Z 22009KT 26/01 A2978 RMK A01 T02580014  RH  020%=      5-min Rain = 0
KTAS 210351Z 22009KT 26/01 A2978 RMK A01 T02580013  RH  020%=      5-min Rain = 0
KTAS 210352Z 22009KT 26/01 A2978 RMK A01 T02580014  RH  020%=      5-min Rain = 0
KTAS 210353Z 22009KT 26/01 A2978 RMK A01 T02580014  RH  020%=      5-min Rain = 0
KTAS 210354Z 23009KT 26/02 A2978 RMK A01 T02570015  RH  021%=      5-min Rain = 0
KTAS 210355Z 23010KT 26/01 A2978 RMK A01 T02560014  RH  021%=      5-min Rain = 0
KTAS 210356Z 22010KT 26/01 A2978 RMK A01 T02570013  RH  020%=      5-min Rain = 0
KTAS 210357Z 22010KT 26/01 A2978 RMK A01 T02570013  RH  020%=      5-min Rain = 0
KTAS 210358Z 22009KT 26/01 A2978 RMK A01 T02570012  RH  020%=      5-min Rain = 0
KTAS 210359Z 22010KT 26/01 A2978 RMK A01 T02570013  RH  020%=      5-min Rain = 0
KTAS 210400Z 22010KT 26/01 A2978 RMK A01 T02570012  RH  020%=      5-min Rain = 0
KTAS 210401Z 22009KT 26/01 A2978 RMK A01 T02580011  RH  020%=      5-min Rain = 0
KTAS 210402Z 23009KT 26/01 A2978 RMK A01 T02570012  RH  020%=      5-min Rain = 0
KTAS 210403Z 23010KT 26/01 A2978 RMK A01 T02560013  RH  020%=      5-min Rain = 0
KTAS 210404Z 23010KT 26/01 A2978 RMK A01 T02560011  RH  020%=      5-min Rain = 0
KTAS 210405Z 23009KT 26/01 A2978 RMK A01 T02560011  RH  020%=      5-min Rain = 0
KTAS 210406Z 23009KT 26/01 A2978 RMK A01 T02550010  RH  020%=      5-min Rain = 0
KTAS 210407Z 23009KT 26/01 A2978 RMK A01 T02550010  RH  020%=      5-min Rain = 0
KTAS 210408Z 23009KT 26/01 A2978 RMK A01 T02550009  RH  020%=      5-min Rain = 0
KTAS 210409Z 23009KT 26/01 A2978 RMK A01 T02550008  RH  020%=      5-min Rain = 0
KTAS 210410Z 23009KT 26/01 A2978 RMK A01 T02550008  RH  020%=      5-min Rain = 0
KTAS 210411Z 23009KT 26/01 A2978 RMK A01 T02550008  RH  020%=      5-min Rain = 0
KTAS 210412Z 22010KT 26/01 A2978 RMK A01 T02550008  RH  020%=      5-min Rain = 0
KTAS 210413Z 22010KT 25/01 A2978 RMK A01 T02540009  RH  020%=      5-min Rain = 0
KTAS 210414Z 22010KT 25/01 A2978 RMK A01 T02530009  RH  020%=      5-min Rain = 0
KTAS 210415Z 22009KT 25/01 A2978 RMK A01 T02530009  RH  020%=      5-min Rain = 0
KTAS 210416Z 23009KT 25/01 A2978 RMK A01 T02520010  RH  020%=      5-min Rain = 0
KTAS 210417Z 23009KT 25/01 A2978 RMK A01 T02510009  RH  020%=      5-min Rain = 0
KTAS 210418Z 23009KT 25/01 A2978 RMK A01 T02510009  RH  021%=      5-min Rain = 0
KTAS 210419Z 23009KT 25/01 A2978 RMK A01 T02500008  RH  020%=      5-min Rain = 0
KTAS 210420Z 23009KT 25/01 A2978 RMK A01 T02500008  RH  021%=      5-min Rain = 0
KTAS 210421Z 23009KT 25/01 A2978 RMK A01 T02490009  RH  021%=      5-min Rain = 0
KTAS 210422Z 22009KT 25/01 A2978 RMK A01 T02480009  RH  021%=      5-min Rain = 0
KTAS 210423Z 23009KT 25/01 A2978 RMK A01 T02470009  RH  021%=      5-min Rain = 0
KTAS 210424Z 22009KT 25/01 A2978 RMK A01 T02470009  RH  021%=      5-min Rain = 0
KTAS 210425Z 22009KT 25/01 A2978 RMK A01 T02460009  RH  021%=      5-min Rain = 0
KTAS 210426Z 22009KT 25/01 A2978 RMK A01 T02450010  RH  021%=      5-min Rain = 0
KTAS 210427Z 23009KT 24/01 A2978 RMK A01 T02440010  RH  021%=      5-min Rain = 0
KTAS 210428Z 22009KT 24/01 A2978 RMK A01 T02440010  RH  022%=      5-min Rain = 0
KTAS 210429Z 22009KT 24/01 A2978 RMK A01 T02430010  RH  022%=      5-min Rain = 0
KTAS 210430Z 22008KT 24/01 A2978 RMK A01 T02420010  RH  022%=      5-min Rain = 0
KTAS 210431Z 22009KT 24/01 A2978 RMK A01 T02420010  RH  022%=      5-min Rain = 0
KTAS 210432Z 22009KT 24/01 A2978 RMK A01 T02420010  RH  022%=      5-min Rain = 0
KTAS 210433Z 22009KT 24/01 A2978 RMK A01 T02410010  RH  022%=      5-min Rain = 0
KTAS 210434Z 22009KT 24/01 A2978 RMK A01 T02410009  RH  022%=      5-min Rain = 0
KTAS 210435Z 22009KT 24/01 A2978 RMK A01 T02400009  RH  022%=      5-min Rain = 0
KTAS 210436Z 22009KT 24/01 A2978 RMK A01 T02400008  RH  022%=      5-min Rain = 0
KTAS 210437Z 22009KT 24/01 A2978 RMK A01 T02400009  RH  022%=      5-min Rain = 0
KTAS 210438Z 22009KT 24/01 A2978 RMK A01 T02400008  RH  022%=      5-min Rain = 0
KTAS 210439Z 22009KT 24/01 A2978 RMK A01 T02410007  RH  021%=      5-min Rain = 0
KTAS 210440Z 22009KT 24/01 A2978 RMK A01 T02420007  RH  021%=      5-min Rain = 0
KTAS 210441Z 22009KT 24/01 A2978 RMK A01 T02410008  RH  021%=      5-min Rain = 0
KTAS 210442Z 22009KT 24/01 A2978 RMK A01 T02410008  RH  022%=      5-min Rain = 0
KTAS 210443Z 22009KT 24/01 A2978 RMK A01 T02410007  RH  021%=      5-min Rain = 0
KTAS 210444Z 22009KT 24/01 A2978 RMK A01 T02410007  RH  021%=      5-min Rain = 0
KTAS 210445Z 22009KT 24/01 A2978 RMK A01 T02410006  RH  021%=      5-min Rain = 0
KTAS 210446Z 22009KT 24/01 A2978 RMK A01 T02420006  RH  021%=      5-min Rain = 0
KTAS 210447Z 22009KT 24/01 A2978 RMK A01 T02420005  RH  021%=      5-min Rain = 0
KTAS 210448Z 22009KT 24/01 A2978 RMK A01 T02430005  RH  021%=      5-min Rain = 0
KTAS 210449Z 22008KT 24/01 A2978 RMK A01 T02430005  RH  021%=      5-min Rain = 0
KTAS 210450Z 22008KT 24/00 A2978 RMK A01 T02430004  RH  021%=      5-min Rain = 0
KTAS 210451Z 22008KT 24/01 A2978 RMK A01 T02440005  RH  021%=      5-min Rain = 0
KTAS 210452Z 22008KT 24/01 A2978 RMK A01 T02440005  RH  021%=      5-min Rain = 0
KTAS 210453Z 22008KT 24/01 A2978 RMK A01 T02430006  RH  021%=      5-min Rain = 0
KTAS 210454Z 22008KT 24/01 A2978 RMK A01 T02420006  RH  021%=      5-min Rain = 0
KTAS 210455Z 22008KT 24/01 A2978 RMK A01 T02420006  RH  021%=      5-min Rain = 0
KTAS 210456Z 22008KT 24/01 A2978 RMK A01 T02410006  RH  021%=      5-min Rain = 0
KTAS 210457Z 22009KT 24/01 A2978 RMK A01 T02410006  RH  021%=      5-min Rain = 0
KTAS 210458Z 22008KT 24/01 A2978 RMK A01 T02410007  RH  021%=      5-min Rain = 0
KTAS 210459Z 22009KT 24/01 A2978 RMK A01 T02400007  RH  022%=      5-min Rain = 0

Page generated in 0.0829 seconds.